Time,TemperatureF,DewpointF,PressureIn,WindDirection,WindDirectionDegrees,WindSpeedMPH,WindSpeedGustMPH,Humidity,HourlyPrecipIn,Conditions,Clouds,dailyrainin,SolarRadiationWatts/m^2,SoftwareType,DateUTC
2013-02-13 00:00:00,15.5,13.6,29.93,SSW,194,0.0,0.0,92,0.00,,,0.00,0,Wunderground v.1.15,2013-02-13 06:00:00,
2013-02-13 00:01:00,15.5,13.6,29.93,SSW,194,0.0,0.0,92,0.00,,,0.00,0,Wunderground v.1.15,2013-02-13 06:01:00,
2013-02-13 00:07:00,15.0,12.8,29.93,SSW,194,0.0,0.0,91,0.00,,,0.00,0,Wunderground v.1.15,2013-02-13 06:07:00,
2013-02-13 00:08:00,14.9,12.7,29.93,SSW,194,0.0,0.0,91,0.00,,,0.00,0,Wunderground v.1.15,2013-02-13 06:08:00,
2013-02-13 00:12:00,14.7,12.6,29.93,SSW,194,0.0,0.0,91,0.00,,,0.00,0,Wunderground v.1.15,2013-02-13 06:12:00,
2013-02-13 00:13:00,14.6,12.5,29.93,SSW,194,0.0,0.0,91,0.00,,,0.00,0,Wunderground v.1.15,2013-02-13 06:13:00,
2013-02-13 00:14:00,14.6,12.5,29.93,SSW,194,0.0,0.0,91,0.00,,,0.00,0,Wunderground v.1.15,2013-02-13 06:14:00,
2013-02-13 00:18:00,14.8,12.9,29.93,SSW,194,0.0,1.0,92,0.00,,,0.00,0,Wunderground v.1.15,2013-02-13 06:18:00,
2013-02-13 00:20:00,15.0,13.1,29.93,SSW,194,0.0,1.0,92,0.00,,,0.00,0,Wunderground v.1.15,2013-02-13 06:20:00,
2013-02-13 00:21:00,15.0,13.1,29.94,SSW,194,0.0,1.0,92,0.00,,,0.00,0,Wunderground v.1.15,2013-02-13 06:21:00,
2013-02-13 00:27:00,15.4,13.5,29.93,SSW,194,1.0,3.0,92,0.00,,,0.00,0,Wunderground v.1.15,2013-02-13 06:27:00,
2013-02-13 00:28:00,15.3,13.4,29.93,SSW,194,1.0,3.0,92,0.00,,,0.00,0,Wunderground v.1.15,2013-02-13 06:28:00,
2013-02-13 00:29:00,15.2,13.0,29.93,SSW,194,1.0,3.0,91,0.00,,,0.00,0,Wunderground v.1.15,2013-02-13 06:29:00,
2013-02-13 00:30:00,15.2,13.0,29.93,SSW,194,1.0,1.0,91,0.00,,,0.00,0,Wunderground v.1.15,2013-02-13 06:30:00,
2013-02-13 00:34:00,14.9,12.7,29.93,SSW,194,1.0,1.0,91,0.00,,,0.00,0,Wunderground v.1.15,2013-02-13 06:34:00,
2013-02-13 00:36:00,14.7,12.6,29.93,SSW,194,1.0,1.0,91,0.00,,,0.00,0,Wunderground v.1.15,2013-02-13 06:36:00,
2013-02-13 00:37:00,14.6,12.5,29.93,SSW,194,1.0,1.0,91,0.00,,,0.00,0,Wunderground v.1.15,2013-02-13 06:37:00,
2013-02-13 00:39:00,14.4,12.3,29.93,SSW,194,1.0,1.0,91,0.00,,,0.00,0,Wunderground v.1.15,2013-02-13 06:39:00,
2013-02-13 00:43:00,14.1,12.0,29.93,SSW,194,0.0,1.0,91,0.00,,,0.00,0,Wunderground v.1.15,2013-02-13 06:43:00,
2013-02-13 00:44:00,14.1,12.0,29.93,SSW,194,0.0,1.0,91,0.00,,,0.00,0,Wunderground v.1.15,2013-02-13 06:44:00,
2013-02-13 00:45:00,14.1,12.0,29.92,SSW,194,0.0,1.0,91,0.00,,,0.00,0,Wunderground v.1.15,2013-02-13 06:45:00,
2013-02-13 00:46:00,14.2,12.1,29.93,SSW,194,0.0,1.0,91,0.00,,,0.00,0,Wunderground v.1.15,2013-02-13 06:46:00,
2013-02-13 00:49:00,14.3,12.4,29.93,SSW,194,0.0,1.0,92,0.00,,,0.00,0,Wunderground v.1.15,2013-02-13 06:49:00,
2013-02-13 00:52:00,14.2,12.1,29.93,SSW,194,0.0,0.0,91,0.00,,,0.00,0,Wunderground v.1.15,2013-02-13 06:52:00,
2013-02-13 00:53:00,14.2,12.1,29.92,SSW,194,0.0,0.0,91,0.00,,,0.00,0,Wunderground v.1.15,2013-02-13 06:53:00,
2013-02-13 00:54:00,14.1,12.0,29.92,SSW,194,0.0,0.0,91,0.00,,,0.00,0,Wunderground v.1.15,2013-02-13 06:54:00,
2013-02-13 01:00:00,14.0,11.9,29.92,SSW,194,0.0,0.0,91,0.00,,,0.00,0,Wunderground v.1.15,2013-02-13 07:00:00,
2013-02-13 01:02:00,13.9,11.8,29.92,SSW,194,0.0,0.0,91,0.00,,,0.00,0,Wunderground v.1.15,2013-02-13 07:02:00,
2013-02-13 01:03:00,13.9,11.8,29.92,SSW,194,0.0,0.0,91,0.00,,,0.00,0,Wunderground v.1.15,2013-02-13 07:03:00,
2013-02-13 01:05:00,13.8,11.7,29.92,SSW,194,0.0,0.0,91,0.00,,,0.00,0,Wunderground v.1.15,2013-02-13 07:05:00,
2013-02-13 01:07:00,13.9,11.8,29.92,SSW,194,0.0,0.0,91,0.00,,,0.00,0,Wunderground v.1.15,2013-02-13 07:07:00,
2013-02-13 01:11:00,14.0,11.9,29.92,SSW,194,0.0,0.0,91,0.00,,,0.00,0,Wunderground v.1.15,2013-02-13 07:11:00,
2013-02-13 01:17:00,14.0,11.9,29.92,SSW,194,0.0,0.0,91,0.00,,,0.00,0,Wunderground v.1.15,2013-02-13 07:17:00,
2013-02-13 01:18:00,14.0,11.9,29.92,SSW,194,0.0,0.0,91,0.00,,,0.00,0,Wunderground v.1.15,2013-02-13 07:18:00,
2013-02-13 01:19:00,14.0,11.9,29.92,SSW,194,0.0,0.0,91,0.00,,,0.00,0,Wunderground v.1.15,2013-02-13 07:19:00,
2013-02-13 01:22:00,13.9,11.8,29.92,SSW,194,0.0,0.0,91,0.00,,,0.00,0,Wunderground v.1.15,2013-02-13 07:22:00,
2013-02-13 01:24:00,13.8,11.7,29.92,SSW,194,0.0,0.0,91,0.00,,,0.00,0,Wunderground v.1.15,2013-02-13 07:24:00,
2013-02-13 01:25:00,13.8,11.7,29.92,SSW,194,0.0,0.0,91,0.00,,,0.00,0,Wunderground v.1.15,2013-02-13 07:25:00,
2013-02-13 01:26:00,13.7,11.6,29.92,SSW,194,0.0,0.0,91,0.00,,,0.00,0,Wunderground v.1.15,2013-02-13 07:26:00,
2013-02-13 01:30:00,13.6,11.5,29.92,SSW,194,0.0,0.0,91,0.00,,,0.00,0,Wunderground v.1.15,2013-02-13 07:30:00,
2013-02-13 01:31:00,13.6,11.5,29.92,SSW,194,0.0,0.0,91,0.00,,,0.00,0,Wunderground v.1.15,2013-02-13 07:31:00,
2013-02-13 01:32:00,13.6,11.5,29.92,SSW,194,0.0,0.0,91,0.00,,,0.00,0,Wunderground v.1.15,2013-02-13 07:32:00,
2013-02-13 01:36:00,13.5,11.4,29.92,SSW,194,0.0,0.0,91,0.00,,,0.00,0,Wunderground v.1.15,2013-02-13 07:36:00,
2013-02-13 01:38:00,13.4,11.3,29.92,SSW,194,0.0,0.0,91,0.00,,,0.00,0,Wunderground v.1.15,2013-02-13 07:38:00,
2013-02-13 01:39:00,13.4,11.3,29.92,SSW,194,0.0,0.0,91,0.00,,,0.00,0,Wunderground v.1.15,2013-02-13 07:39:00,
2013-02-13 01:41:00,13.4,11.3,29.92,SSW,194,0.0,0.0,91,0.00,,,0.00,0,Wunderground v.1.15,2013-02-13 07:41:00,
2013-02-13 01:46:00,13.6,11.5,29.92,SSW,194,0.0,0.0,91,0.00,,,0.00,0,Wunderground v.1.15,2013-02-13 07:46:00,
2013-02-13 01:47:00,13.6,11.5,29.92,SSW,194,0.0,0.0,91,0.00,,,0.00,0,Wunderground v.1.15,2013-02-13 07:47:00,
2013-02-13 01:48:00,13.5,11.4,29.92,SSW,194,0.0,0.0,91,0.00,,,0.00,0,Wunderground v.1.15,2013-02-13 07:48:00,
2013-02-13 01:52:00,13.4,11.3,29.91,SSW,194,0.0,0.0,91,0.00,,,0.00,0,Wunderground v.1.15,2013-02-13 07:52:00,
2013-02-13 01:53:00,13.4,11.3,29.92,SSW,194,0.0,0.0,91,0.00,,,0.00,0,Wunderground v.1.15,2013-02-13 07:53:00,
2013-02-13 01:55:00,13.3,11.2,29.92,SSW,194,0.0,0.0,91,0.00,,,0.00,0,Wunderground v.1.15,2013-02-13 07:55:00,
2013-02-13 01:57:00,13.3,11.2,29.92,SSW,194,0.0,0.0,91,0.00,,,0.00,0,Wunderground v.1.15,2013-02-13 07:57:00,
2013-02-13 01:58:00,13.2,11.1,29.92,SSW,194,0.0,0.0,91,0.00,,,0.00,0,Wunderground v.1.15,2013-02-13 07:58:00,
2013-02-13 02:00:00,13.2,11.1,29.92,SSW,194,0.0,0.0,91,0.00,,,0.00,0,Wunderground v.1.15,2013-02-13 08:00:00,
2013-02-13 02:05:00,13.1,11.0,29.91,SSW,194,0.0,0.0,91,0.00,,,0.00,0,Wunderground v.1.15,2013-02-13 08:05:00,
2013-02-13 02:06:00,13.1,11.0,29.91,SSW,194,0.0,0.0,91,0.00,,,0.00,0,Wunderground v.1.15,2013-02-13 08:06:00,
2013-02-13 02:07:00,13.1,11.0,29.91,SSW,194,0.0,0.0,91,0.00,,,0.00,0,Wunderground v.1.15,2013-02-13 08:07:00,
2013-02-13 02:09:00,13.1,11.0,29.91,SSW,194,0.0,0.0,91,0.00,,,0.00,0,Wunderground v.1.15,2013-02-13 08:09:00,
2013-02-13 02:12:00,13.1,11.0,29.91,SSW,194,0.0,0.0,91,0.00,,,0.00,0,Wunderground v.1.15,2013-02-13 08:12:00,
2013-02-13 02:14:00,13.0,10.9,29.91,SSW,194,0.0,0.0,91,0.00,,,0.00,0,Wunderground v.1.15,2013-02-13 08:14:00,
2013-02-13 02:16:00,13.0,10.9,29.91,SSW,194,0.0,0.0,91,0.00,,,0.00,0,Wunderground v.1.15,2013-02-13 08:16:00,
2013-02-13 02:18:00,12.9,10.8,29.91,SSW,194,0.0,0.0,91,0.00,,,0.00,0,Wunderground v.1.15,2013-02-13 08:18:00,
2013-02-13 02:19:00,12.9,10.8,29.91,SSW,194,0.0,0.0,91,0.00,,,0.00,0,Wunderground v.1.15,2013-02-13 08:19:00,
2013-02-13 02:22:00,12.8,10.7,29.91,SSW,194,0.0,0.0,91,0.00,,,0.00,0,Wunderground v.1.15,2013-02-13 08:22:00,
2013-02-13 02:27:00,12.8,10.7,29.91,SSW,194,0.0,0.0,91,0.00,,,0.00,0,Wunderground v.1.15,2013-02-13 08:27:00,
2013-02-13 02:29:00,12.8,10.7,29.91,SSW,194,0.0,0.0,91,0.00,,,0.00,0,Wunderground v.1.15,2013-02-13 08:29:00,
2013-02-13 02:30:00,12.8,10.7,29.91,SSW,194,0.0,0.0,91,0.00,,,0.00,0,Wunderground v.1.15,2013-02-13 08:30:00,
2013-02-13 02:32:00,12.8,10.7,29.91,SSW,194,0.0,0.0,91,0.00,,,0.00,0,Wunderground v.1.15,2013-02-13 08:32:00,
2013-02-13 02:36:00,12.7,10.6,29.91,SSW,194,0.0,0.0,91,0.00,,,0.00,0,Wunderground v.1.15,2013-02-13 08:36:00,
2013-02-13 02:37:00,12.7,10.6,29.91,SSW,194,0.0,0.0,91,0.00,,,0.00,0,Wunderground v.1.15,2013-02-13 08:37:00,
2013-02-13 02:39:00,12.7,10.6,29.91,SSW,194,0.0,0.0,91,0.00,,,0.00,0,Wunderground v.1.15,2013-02-13 08:39:00,
2013-02-13 02:40:00,12.7,10.6,29.91,SSW,194,0.0,0.0,91,0.00,,,0.00,0,Wunderground v.1.15,2013-02-13 08:40:00,
2013-02-13 02:42:00,12.7,10.6,29.91,SSW,194,0.0,0.0,91,0.00,,,0.00,0,Wunderground v.1.15,2013-02-13 08:42:00,
2013-02-13 02:45:00,12.6,10.5,29.91,SSW,194,0.0,0.0,91,0.00,,,0.00,0,Wunderground v.1.15,2013-02-13 08:45:00,
2013-02-13 02:46:00,12.5,10.4,29.91,SSW,194,0.0,0.0,91,0.00,,,0.00,0,Wunderground v.1.15,2013-02-13 08:46:00,
2013-02-13 02:48:00,12.4,10.3,29.90,SSW,194,0.0,1.0,91,0.00,,,0.00,0,Wunderground v.1.15,2013-02-13 08:48:00,
2013-02-13 02:49:00,12.4,10.3,29.90,SSW,194,0.0,1.0,91,0.00,,,0.00,0,Wunderground v.1.15,2013-02-13 08:49:00,
2013-02-13 02:51:00,12.3,10.2,29.91,SSW,194,1.0,1.0,91,0.00,,,0.00,0,Wunderground v.1.15,2013-02-13 08:51:00,
2013-02-13 02:52:00,12.2,10.1,29.91,SSW,194,1.0,1.0,91,0.00,,,0.00,0,Wunderground v.1.15,2013-02-13 08:52:00,
2013-02-13 02:56:00,12.1,10.0,29.91,SSW,194,1.0,1.0,91,0.00,,,0.00,0,Wunderground v.1.15,2013-02-13 08:56:00,
2013-02-13 02:58:00,12.1,10.0,29.90,SSW,194,0.0,1.0,91,0.00,,,0.00,0,Wunderground v.1.15,2013-02-13 08:58:00,
2013-02-13 03:01:00,12.2,10.1,29.90,SSW,194,0.0,0.0,91,0.00,,,0.00,0,Wunderground v.1.15,2013-02-13 09:01:00,
2013-02-13 03:02:00,12.2,10.1,29.90,SSW,194,0.0,0.0,91,0.00,,,0.00,0,Wunderground v.1.15,2013-02-13 09:02:00,
2013-02-13 03:03:00,12.2,10.1,29.90,SSW,194,0.0,0.0,91,0.00,,,0.00,0,Wunderground v.1.15,2013-02-13 09:03:00,
2013-02-13 03:06:00,12.2,10.1,29.90,SSW,194,0.0,0.0,91,0.00,,,0.00,0,Wunderground v.1.15,2013-02-13 09:06:00,
2013-02-13 03:07:00,12.3,10.2,29.90,SSW,194,0.0,0.0,91,0.00,,,0.00,0,Wunderground v.1.15,2013-02-13 09:07:00,
2013-02-13 03:08:00,12.3,10.2,29.90,SSW,194,0.0,0.0,91,0.00,,,0.00,0,Wunderground v.1.15,2013-02-13 09:08:00,
2013-02-13 03:10:00,12.3,10.2,29.90,SSW,194,0.0,0.0,91,0.00,,,0.00,0,Wunderground v.1.15,2013-02-13 09:10:00,
2013-02-13 03:11:00,12.2,10.1,29.90,SSW,194,0.0,0.0,91,0.00,,,0.00,0,Wunderground v.1.15,2013-02-13 09:11:00,
2013-02-13 03:12:00,12.2,10.1,29.90,SSW,194,0.0,0.0,91,0.00,,,0.00,0,Wunderground v.1.15,2013-02-13 09:12:00,
2013-02-13 03:15:00,12.1,10.0,29.90,SSW,194,0.0,0.0,91,0.00,,,0.00,0,Wunderground v.1.15,2013-02-13 09:15:00,
2013-02-13 03:16:00,12.1,10.0,29.90,SSW,194,0.0,0.0,91,0.00,,,0.00,0,Wunderground v.1.15,2013-02-13 09:16:00,
2013-02-13 03:18:00,12.1,10.0,29.90,SSW,194,0.0,0.0,91,0.00,,,0.00,0,Wunderground v.1.15,2013-02-13 09:18:00,
2013-02-13 03:20:00,12.1,10.0,29.90,SSW,194,0.0,0.0,91,0.00,,,0.00,0,Wunderground v.1.15,2013-02-13 09:20:00,
2013-02-13 03:21:00,12.1,10.0,29.90,SSW,194,0.0,0.0,91,0.00,,,0.00,0,Wunderground v.1.15,2013-02-13 09:21:00,
2013-02-13 03:25:00,12.0,9.9,29.90,SSW,194,0.0,0.0,91,0.00,,,0.00,0,Wunderground v.1.15,2013-02-13 09:25:00,
2013-02-13 03:27:00,11.9,9.8,29.90,SSW,194,0.0,0.0,91,0.00,,,0.00,0,Wunderground v.1.15,2013-02-13 09:27:00,
2013-02-13 03:29:00,11.9,9.8,29.90,SSW,194,0.0,0.0,91,0.00,,,0.00,0,Wunderground v.1.15,2013-02-13 09:29:00,
2013-02-13 03:31:00,12.0,9.9,29.90,SSW,194,0.0,0.0,91,0.00,,,0.00,0,Wunderground v.1.15,2013-02-13 09:31:00,
2013-02-13 03:32:00,12.0,9.9,29.90,SSW,194,0.0,0.0,91,0.00,,,0.00,0,Wunderground v.1.15,2013-02-13 09:32:00,
2013-02-13 03:33:00,12.0,9.9,29.89,SSW,194,0.0,0.0,91,0.00,,,0.00,0,Wunderground v.1.15,2013-02-13 09:33:00,
2013-02-13 03:34:00,12.0,9.9,29.89,SSW,194,0.0,0.0,91,0.00,,,0.00,0,Wunderground v.1.15,2013-02-13 09:34:00,
2013-02-13 03:36:00,12.0,9.9,29.89,SSW,194,0.0,0.0,91,0.00,,,0.00,0,Wunderground v.1.15,2013-02-13 09:36:00,
2013-02-13 03:39:00,12.0,9.6,29.89,SSW,194,0.0,0.0,90,0.00,,,0.00,0,Wunderground v.1.15,2013-02-13 09:39:00,
2013-02-13 03:40:00,12.0,9.9,29.89,SSW,194,0.0,0.0,91,0.00,,,0.00,0,Wunderground v.1.15,2013-02-13 09:40:00,
2013-02-13 03:41:00,12.0,9.9,29.89,SSW,194,0.0,0.0,91,0.00,,,0.00,0,Wunderground v.1.15,2013-02-13 09:41:00,
2013-02-13 03:42:00,12.0,9.9,29.89,SSW,194,0.0,0.0,91,0.00,,,0.00,0,Wunderground v.1.15,2013-02-13 09:42:00,
2013-02-13 03:45:00,12.0,9.9,29.89,SSW,194,0.0,0.0,91,0.00,,,0.00,0,Wunderground v.1.15,2013-02-13 09:45:00,
2013-02-13 03:47:00,12.0,9.9,29.89,SSW,194,0.0,0.0,91,0.00,,,0.00,0,Wunderground v.1.15,2013-02-13 09:47:00,
2013-02-13 03:48:00,12.0,9.9,29.89,SSW,194,0.0,0.0,91,0.00,,,0.00,0,Wunderground v.1.15,2013-02-13 09:48:00,
2013-02-13 03:49:00,12.0,9.9,29.89,SSW,194,0.0,0.0,91,0.00,,,0.00,0,Wunderground v.1.15,2013-02-13 09:49:00,
2013-02-13 03:53:00,12.0,9.9,29.89,SSW,194,0.0,0.0,91,0.00,,,0.00,0,Wunderground v.1.15,2013-02-13 09:53:00,
2013-02-13 03:55:00,12.1,10.0,29.88,SSW,194,0.0,0.0,91,0.00,,,0.00,0,Wunderground v.1.15,2013-02-13 09:55:00,
2013-02-13 03:56:00,12.1,10.0,29.88,SSW,194,0.0,0.0,91,0.00,,,0.00,0,Wunderground v.1.15,2013-02-13 09:56:00,
2013-02-13 03:58:00,12.1,10.0,29.88,SSW,194,0.0,0.0,91,0.00,,,0.00,0,Wunderground v.1.15,2013-02-13 09:58:00,
2013-02-13 03:59:00,12.1,10.0,29.88,SSW,194,0.0,0.0,91,0.00,,,0.00,0,Wunderground v.1.15,2013-02-13 09:59:00,
2013-02-13 04:03:00,12.0,9.9,29.89,SSW,194,0.0,0.0,91,0.00,,,0.00,0,Wunderground v.1.15,2013-02-13 10:03:00,
2013-02-13 04:04:00,12.0,9.9,29.89,SSW,194,0.0,0.0,91,0.00,,,0.00,0,Wunderground v.1.15,2013-02-13 10:04:00,
2013-02-13 04:06:00,11.9,9.8,29.88,SSW,194,0.0,0.0,91,0.00,,,0.00,0,Wunderground v.1.15,2013-02-13 10:06:00,
2013-02-13 04:09:00,11.9,9.8,29.88,SSW,194,0.0,0.0,91,0.00,,,0.00,0,Wunderground v.1.15,2013-02-13 10:09:00,
2013-02-13 04:10:00,12.0,9.9,29.88,SSW,194,0.0,0.0,91,0.00,,,0.00,0,Wunderground v.1.15,2013-02-13 10:10:00,
2013-02-13 04:12:00,12.1,10.0,29.88,SSW,194,0.0,0.0,91,0.00,,,0.00,0,Wunderground v.1.15,2013-02-13 10:12:00,
2013-02-13 04:17:00,12.2,10.1,29.88,SSW,194,0.0,0.0,91,0.00,,,0.00,0,Wunderground v.1.15,2013-02-13 10:17:00,
2013-02-13 04:18:00,12.2,10.1,29.88,SSW,194,0.0,0.0,91,0.00,,,0.00,0,Wunderground v.1.15,2013-02-13 10:18:00,
2013-02-13 04:19:00,12.2,10.1,29.88,SSW,194,0.0,0.0,91,0.00,,,0.00,0,Wunderground v.1.15,2013-02-13 10:19:00,
2013-02-13 04:20:00,12.2,10.1,29.88,SSW,194,0.0,0.0,91,0.00,,,0.00,0,Wunderground v.1.15,2013-02-13 10:20:00,
2013-02-13 04:22:00,12.2,10.1,29.87,SSW,194,0.0,0.0,91,0.00,,,0.00,0,Wunderground v.1.15,2013-02-13 10:22:00,
2013-02-13 04:25:00,12.2,10.1,29.87,SSW,194,0.0,0.0,91,0.00,,,0.00,0,Wunderground v.1.15,2013-02-13 10:25:00,
2013-02-13 04:26:00,12.2,10.1,29.87,SSW,194,0.0,0.0,91,0.00,,,0.00,0,Wunderground v.1.15,2013-02-13 10:26:00,
2013-02-13 04:29:00,12.1,9.7,29.87,SSW,194,0.0,0.0,90,0.00,,,0.00,0,Wunderground v.1.15,2013-02-13 10:29:00,
2013-02-13 04:31:00,12.1,10.0,29.87,SSW,194,0.0,0.0,91,0.00,,,0.00,0,Wunderground v.1.15,2013-02-13 10:31:00,
2013-02-13 04:32:00,12.1,10.0,29.87,SSW,194,0.0,0.0,91,0.00,,,0.00,0,Wunderground v.1.15,2013-02-13 10:32:00,
2013-02-13 04:34:00,12.1,10.0,29.87,SSW,194,0.0,0.0,91,0.00,,,0.00,0,Wunderground v.1.15,2013-02-13 10:34:00,
2013-02-13 04:37:00,12.1,10.0,29.87,SSW,194,0.0,0.0,91,0.00,,,0.00,0,Wunderground v.1.15,2013-02-13 10:37:00,
2013-02-13 04:40:00,12.1,10.0,29.87,SSW,194,0.0,0.0,91,0.00,,,0.00,0,Wunderground v.1.15,2013-02-13 10:40:00,
2013-02-13 04:44:00,12.0,9.9,29.87,SSW,194,0.0,0.0,91,0.00,,,0.00,0,Wunderground v.1.15,2013-02-13 10:44:00,
2013-02-13 04:46:00,11.9,9.8,29.87,SSW,194,0.0,0.0,91,0.00,,,0.00,0,Wunderground v.1.15,2013-02-13 10:46:00,
2013-02-13 04:48:00,11.9,9.8,29.87,SSW,194,0.0,0.0,91,0.00,,,0.00,0,Wunderground v.1.15,2013-02-13 10:48:00,
2013-02-13 04:50:00,11.9,9.8,29.87,SSW,194,0.0,0.0,91,0.00,,,0.00,0,Wunderground v.1.15,2013-02-13 10:50:00,
2013-02-13 04:52:00,11.8,9.4,29.87,SSW,194,0.0,0.0,90,0.00,,,0.00,0,Wunderground v.1.15,2013-02-13 10:52:00,
2013-02-13 04:54:00,11.7,9.3,29.87,SSW,194,0.0,0.0,90,0.00,,,0.00,0,Wunderground v.1.15,2013-02-13 10:54:00,
2013-02-13 04:57:00,11.6,9.2,29.87,SSW,194,0.0,0.0,90,0.00,,,0.00,0,Wunderground v.1.15,2013-02-13 10:57:00,
2013-02-13 04:59:00,11.7,9.3,29.87,SSW,194,0.0,0.0,90,0.00,,,0.00,0,Wunderground v.1.15,2013-02-13 10:59:00,
2013-02-13 05:03:00,11.6,9.2,29.87,SSW,194,0.0,0.0,90,0.00,,,0.00,0,Wunderground v.1.15,2013-02-13 11:03:00,
2013-02-13 05:05:00,11.6,9.2,29.87,SSW,194,0.0,0.0,90,0.00,,,0.00,0,Wunderground v.1.15,2013-02-13 11:05:00,
2013-02-13 05:07:00,11.6,9.2,29.87,SSW,194,0.0,0.0,90,0.00,,,0.00,0,Wunderground v.1.15,2013-02-13 11:07:00,
2013-02-13 05:10:00,11.7,9.3,29.87,SSW,194,0.0,0.0,90,0.00,,,0.00,0,Wunderground v.1.15,2013-02-13 11:10:00,
2013-02-13 05:11:00,11.7,9.3,29.87,SSW,194,0.0,0.0,90,0.00,,,0.00,0,Wunderground v.1.15,2013-02-13 11:11:00,
2013-02-13 05:15:00,11.6,9.2,29.87,SSW,194,0.0,0.0,90,0.00,,,0.00,0,Wunderground v.1.15,2013-02-13 11:15:00,
2013-02-13 05:16:00,11.6,9.2,29.87,SSW,194,0.0,0.0,90,0.00,,,0.00,0,Wunderground v.1.15,2013-02-13 11:16:00,
2013-02-13 05:17:00,11.6,9.2,29.87,SSW,194,0.0,0.0,90,0.00,,,0.00,0,Wunderground v.1.15,2013-02-13 11:17:00,
2013-02-13 05:18:00,11.6,9.2,29.87,SSW,194,0.0,0.0,90,0.00,,,0.00,0,Wunderground v.1.15,2013-02-13 11:18:00,
2013-02-13 05:21:00,11.4,9.0,29.88,SSW,194,0.0,0.0,90,0.00,,,0.00,0,Wunderground v.1.15,2013-02-13 11:21:00,
2013-02-13 05:23:00,11.3,8.9,29.87,SSW,194,0.0,0.0,90,0.00,,,0.00,0,Wunderground v.1.15,2013-02-13 11:23:00,
2013-02-13 05:26:00,11.3,8.9,29.88,SSW,194,0.0,0.0,90,0.00,,,0.00,0,Wunderground v.1.15,2013-02-13 11:26:00,
2013-02-13 05:27:00,11.3,8.9,29.88,SSW,194,0.0,0.0,90,0.00,,,0.00,0,Wunderground v.1.15,2013-02-13 11:27:00,
2013-02-13 05:29:00,11.3,8.9,29.88,SSW,194,0.0,0.0,90,0.00,,,0.00,0,Wunderground v.1.15,2013-02-13 11:29:00,
2013-02-13 05:32:00,11.4,9.0,29.88,SSW,194,0.0,0.0,90,0.00,,,0.00,0,Wunderground v.1.15,2013-02-13 11:32:00,
2013-02-13 05:33:00,11.4,9.0,29.88,SSW,194,0.0,0.0,90,0.00,,,0.00,0,Wunderground v.1.15,2013-02-13 11:33:00,
2013-02-13 05:34:00,11.3,8.9,29.88,SSW,194,0.0,0.0,90,0.00,,,0.00,0,Wunderground v.1.15,2013-02-13 11:34:00,
2013-02-13 05:38:00,11.4,9.0,29.88,SSW,194,0.0,0.0,90,0.00,,,0.00,0,Wunderground v.1.15,2013-02-13 11:38:00,
2013-02-13 05:39:00,11.4,9.0,29.88,SSW,194,0.0,0.0,90,0.00,,,0.00,0,Wunderground v.1.15,2013-02-13 11:39:00,
2013-02-13 05:42:00,11.3,8.9,29.88,SSW,194,0.0,0.0,90,0.00,,,0.00,0,Wunderground v.1.15,2013-02-13 11:42:00,
2013-02-13 05:45:00,11.3,8.9,29.88,SSW,194,0.0,0.0,90,0.00,,,0.00,0,Wunderground v.1.15,2013-02-13 11:45:00,
2013-02-13 05:49:00,11.2,8.8,29.88,SSW,194,0.0,0.0,90,0.00,,,0.00,0,Wunderground v.1.15,2013-02-13 11:49:00,
2013-02-13 05:50:00,11.2,8.8,29.88,SSW,194,0.0,0.0,90,0.00,,,0.00,0,Wunderground v.1.15,2013-02-13 11:50:00,
2013-02-13 05:51:00,11.1,8.7,29.88,SSW,194,0.0,0.0,90,0.00,,,0.00,0,Wunderground v.1.15,2013-02-13 11:51:00,
2013-02-13 05:55:00,11.0,8.6,29.88,SSW,194,0.0,0.0,90,0.00,,,0.00,0,Wunderground v.1.15,2013-02-13 11:55:00,
2013-02-13 05:56:00,11.0,8.6,29.88,SSW,194,0.0,0.0,90,0.00,,,0.00,0,Wunderground v.1.15,2013-02-13 11:56:00,
2013-02-13 05:59:00,11.1,8.7,29.88,SSW,194,0.0,0.0,90,0.00,,,0.00,0,Wunderground v.1.15,2013-02-13 11:59:00,
2013-02-13 06:00:00,11.1,8.7,29.88,SSW,194,0.0,0.0,90,0.00,,,0.00,0,Wunderground v.1.15,2013-02-13 12:00:00,
2013-02-13 06:02:00,11.1,8.7,29.88,SSW,194,0.0,0.0,90,0.00,,,0.00,0,Wunderground v.1.15,2013-02-13 12:02:00,
2013-02-13 06:04:00,11.2,8.8,29.88,SSW,194,0.0,0.0,90,0.00,,,0.00,0,Wunderground v.1.15,2013-02-13 12:04:00,
2013-02-13 06:06:00,11.2,8.8,29.87,SSW,194,0.0,0.0,90,0.00,,,0.00,0,Wunderground v.1.15,2013-02-13 12:06:00,
2013-02-13 06:07:00,11.2,8.8,29.87,SSW,194,0.0,0.0,90,0.00,,,0.00,0,Wunderground v.1.15,2013-02-13 12:07:00,
2013-02-13 06:10:00,11.2,8.8,29.87,SSW,194,0.0,0.0,90,0.00,,,0.00,0,Wunderground v.1.15,2013-02-13 12:10:00,
2013-02-13 06:14:00,11.2,8.8,29.87,SSW,194,0.0,0.0,90,0.00,,,0.00,0,Wunderground v.1.15,2013-02-13 12:14:00,
2013-02-13 06:16:00,11.2,8.8,29.87,SSW,194,0.0,0.0,90,0.00,,,0.00,0,Wunderground v.1.15,2013-02-13 12:16:00,
2013-02-13 06:18:00,11.2,8.8,29.87,SSW,194,0.0,0.0,90,0.00,,,0.00,0,Wunderground v.1.15,2013-02-13 12:18:00,
2013-02-13 06:20:00,11.2,8.8,29.87,SSW,194,0.0,0.0,90,0.00,,,0.00,0,Wunderground v.1.15,2013-02-13 12:20:00,
2013-02-13 06:22:00,11.1,8.7,29.87,SSW,194,0.0,0.0,90,0.00,,,0.00,0,Wunderground v.1.15,2013-02-13 12:22:00,
2013-02-13 06:24:00,11.0,8.6,29.87,SSW,194,0.0,0.0,90,0.00,,,0.00,0,Wunderground v.1.15,2013-02-13 12:24:00,
2013-02-13 06:25:00,11.0,8.6,29.87,SSW,194,0.0,0.0,90,0.00,,,0.00,0,Wunderground v.1.15,2013-02-13 12:25:00,
2013-02-13 06:27:00,11.1,8.7,29.87,SSW,194,0.0,0.0,90,0.00,,,0.00,0,Wunderground v.1.15,2013-02-13 12:27:00,
2013-02-13 06:28:00,11.1,8.7,29.87,SSW,194,0.0,0.0,90,0.00,,,0.00,0,Wunderground v.1.15,2013-02-13 12:28:00,
2013-02-13 06:32:00,11.1,8.7,29.87,SSW,194,0.0,0.0,90,0.00,,,0.00,0,Wunderground v.1.15,2013-02-13 12:32:00,
2013-02-13 06:33:00,11.1,8.7,29.87,SSW,194,0.0,0.0,90,0.00,,,0.00,0,Wunderground v.1.15,2013-02-13 12:33:00,
2013-02-13 06:34:00,11.0,8.6,29.87,SSW,194,0.0,0.0,90,0.00,,,0.00,0,Wunderground v.1.15,2013-02-13 12:34:00,
2013-02-13 06:36:00,11.1,8.7,29.87,SSW,194,0.0,0.0,90,0.00,,,0.00,0,Wunderground v.1.15,2013-02-13 12:36:00,
2013-02-13 06:40:00,11.1,8.7,29.87,SSW,194,0.0,0.0,90,0.00,,,0.00,0,Wunderground v.1.15,2013-02-13 12:40:00,
2013-02-13 06:42:00,11.1,8.7,29.87,SSW,194,0.0,0.0,90,0.00,,,0.00,0,Wunderground v.1.15,2013-02-13 12:42:00,
2013-02-13 06:43:00,11.2,8.8,29.87,SSW,194,0.0,0.0,90,0.00,,,0.00,0,Wunderground v.1.15,2013-02-13 12:43:00,
2013-02-13 06:48:00,11.3,8.9,29.87,SSW,194,0.0,0.0,90,0.00,,,0.00,0,Wunderground v.1.15,2013-02-13 12:48:00,
2013-02-13 06:49:00,11.3,8.9,29.87,SSW,194,0.0,0.0,90,0.00,,,0.00,0,Wunderground v.1.15,2013-02-13 12:49:00,
2013-02-13 06:50:00,11.3,8.9,29.86,SSW,194,0.0,0.0,90,0.00,,,0.00,0,Wunderground v.1.15,2013-02-13 12:50:00,
2013-02-13 06:53:00,11.4,9.0,29.86,SSW,194,0.0,0.0,90,0.00,,,0.00,0,Wunderground v.1.15,2013-02-13 12:53:00,
2013-02-13 06:54:00,11.4,9.0,29.87,SSW,194,0.0,0.0,90,0.00,,,0.00,0,Wunderground v.1.15,2013-02-13 12:54:00,
2013-02-13 06:56:00,11.4,9.0,29.86,SSW,194,0.0,0.0,90,0.00,,,0.00,0,Wunderground v.1.15,2013-02-13 12:56:00,
2013-02-13 06:59:00,11.4,9.0,29.86,SSW,194,0.0,0.0,90,0.00,,,0.00,0,Wunderground v.1.15,2013-02-13 12:59:00,
2013-02-13 07:01:00,11.5,9.1,29.86,SSW,194,0.0,0.0,90,0.00,,,0.00,5,Wunderground v.1.15,2013-02-13 13:01:00,
2013-02-13 07:04:00,11.5,9.1,29.86,SSW,194,0.0,0.0,90,0.00,,,0.00,5,Wunderground v.1.15,2013-02-13 13:04:00,
2013-02-13 07:05:00,11.5,9.1,29.86,SSW,194,0.0,0.0,90,0.00,,,0.00,5,Wunderground v.1.15,2013-02-13 13:05:00,
2013-02-13 07:07:00,11.6,9.2,29.86,SSW,194,0.0,0.0,90,0.00,,,0.00,5,Wunderground v.1.15,2013-02-13 13:07:00,
2013-02-13 07:09:00,11.6,9.2,29.86,SSW,194,0.0,0.0,90,0.00,,,0.00,7,Wunderground v.1.15,2013-02-13 13:09:00,
2013-02-13 07:14:00,11.8,9.4,29.86,SSW,194,0.0,0.0,90,0.00,,,0.00,12,Wunderground v.1.15,2013-02-13 13:14:00,
2013-02-13 07:15:00,11.8,9.7,29.86,SSW,194,0.0,0.0,91,0.00,,,0.00,12,Wunderground v.1.15,2013-02-13 13:15:00,
2013-02-13 07:16:00,11.8,9.7,29.86,SSW,194,0.0,0.0,91,0.00,,,0.00,12,Wunderground v.1.15,2013-02-13 13:16:00,
2013-02-13 07:20:00,12.0,9.9,29.86,SSW,194,0.0,0.0,91,0.00,,,0.00,16,Wunderground v.1.15,2013-02-13 13:20:00,
2013-02-13 07:21:00,12.1,10.0,29.86,SSW,194,0.0,0.0,91,0.00,,,0.00,19,Wunderground v.1.15,2013-02-13 13:21:00,
2013-02-13 07:23:00,12.3,10.2,29.86,SSW,194,0.0,0.0,91,0.00,,,0.00,21,Wunderground v.1.15,2013-02-13 13:23:00,
2013-02-13 07:24:00,12.3,10.2,29.86,SSW,194,0.0,0.0,91,0.00,,,0.00,21,Wunderground v.1.15,2013-02-13 13:24:00,
2013-02-13 07:27:00,12.5,10.4,29.86,SSW,194,0.0,0.0,91,0.00,,,0.00,32,Wunderground v.1.15,2013-02-13 13:27:00,
2013-02-13 07:28:00,12.6,10.5,29.86,SSW,194,0.0,0.0,91,0.00,,,0.00,35,Wunderground v.1.15,2013-02-13 13:28:00,
2013-02-13 07:32:00,12.8,10.7,29.86,SSW,194,0.0,0.0,91,0.00,,,0.00,46,Wunderground v.1.15,2013-02-13 13:32:00,
2013-02-13 07:34:00,12.9,10.8,29.86,SSW,194,0.0,0.0,91,0.00,,,0.00,51,Wunderground v.1.15,2013-02-13 13:34:00,
2013-02-13 07:35:00,13.0,10.9,29.86,SSW,194,0.0,0.0,91,0.00,,,0.00,53,Wunderground v.1.15,2013-02-13 13:35:00,
2013-02-13 07:39:00,13.1,11.0,29.86,SSW,194,0.0,0.0,91,0.00,,,0.00,35,Wunderground v.1.15,2013-02-13 13:39:00,
2013-02-13 07:40:00,13.2,11.1,29.86,SSW,194,0.0,0.0,91,0.00,,,0.00,37,Wunderground v.1.15,2013-02-13 13:40:00,
2013-02-13 07:41:00,13.2,11.1,29.86,SSW,194,0.0,0.0,91,0.00,,,0.00,39,Wunderground v.1.15,2013-02-13 13:41:00,
2013-02-13 07:45:00,13.4,11.3,29.86,SSW,194,0.0,0.0,91,0.00,,,0.00,44,Wunderground v.1.15,2013-02-13 13:45:00,
2013-02-13 07:46:00,13.4,11.3,29.86,SSW,194,0.0,0.0,91,0.00,,,0.00,44,Wunderground v.1.15,2013-02-13 13:46:00,
2013-02-13 07:47:00,13.5,11.4,29.86,SSW,194,0.0,0.0,91,0.00,,,0.00,46,Wunderground v.1.15,2013-02-13 13:47:00,
2013-02-13 07:49:00,13.5,11.4,29.86,SSW,194,0.0,0.0,91,0.00,,,0.00,47,Wunderground v.1.15,2013-02-13 13:49:00,
2013-02-13 07:52:00,13.7,11.6,29.86,SSW,194,0.0,0.0,91,0.00,,,0.00,54,Wunderground v.1.15,2013-02-13 13:52:00,
2013-02-13 07:54:00,13.8,11.7,29.86,SSW,194,0.0,0.0,91,0.00,,,0.00,56,Wunderground v.1.15,2013-02-13 13:54:00,
2013-02-13 07:58:00,14.0,11.9,29.86,SSW,194,0.0,1.0,91,0.00,,,0.00,69,Wunderground v.1.15,2013-02-13 13:58:00,
2013-02-13 08:00:00,14.0,11.9,29.86,SSW,194,0.0,0.0,91,0.00,,,0.00,74,Wunderground v.1.15,2013-02-13 14:00:00,
2013-02-13 08:02:00,14.1,12.0,29.86,SSW,194,0.0,0.0,91,0.00,,,0.00,79,Wunderground v.1.15,2013-02-13 14:02:00,
2013-02-13 08:03:00,14.1,12.0,29.86,SSW,194,0.0,0.0,91,0.00,,,0.00,79,Wunderground v.1.15,2013-02-13 14:03:00,
2013-02-13 08:07:00,14.5,12.4,29.86,SSW,194,0.0,0.0,91,0.00,,,0.00,83,Wunderground v.1.15,2013-02-13 14:07:00,
2013-02-13 08:08:00,14.6,12.5,29.86,SSW,194,0.0,0.0,91,0.00,,,0.00,88,Wunderground v.1.15,2013-02-13 14:08:00,
2013-02-13 08:09:00,14.7,12.6,29.86,SSW,194,0.0,0.0,91,0.00,,,0.00,91,Wunderground v.1.15,2013-02-13 14:09:00,
2013-02-13 08:13:00,15.2,13.3,29.86,SSW,194,0.0,0.0,92,0.00,,,0.00,98,Wunderground v.1.15,2013-02-13 14:13:00,
2013-02-13 08:15:00,15.3,13.1,29.86,SSW,194,0.0,0.0,91,0.00,,,0.00,102,Wunderground v.1.15,2013-02-13 14:15:00,
2013-02-13 08:17:00,15.4,13.2,29.86,SSW,194,0.0,0.0,91,0.00,,,0.00,105,Wunderground v.1.15,2013-02-13 14:17:00,
2013-02-13 08:22:00,15.7,13.8,29.86,SSW,194,0.0,0.0,92,0.00,,,0.00,111,Wunderground v.1.15,2013-02-13 14:22:00,
2013-02-13 08:24:00,15.7,13.5,29.86,SSW,194,0.0,0.0,91,0.00,,,0.00,116,Wunderground v.1.15,2013-02-13 14:24:00,
2013-02-13 08:25:00,15.7,13.5,29.86,SSW,194,0.0,0.0,91,0.00,,,0.00,125,Wunderground v.1.15,2013-02-13 14:25:00,
2013-02-13 08:26:00,15.8,13.6,29.86,SSW,194,0.0,0.0,91,0.00,,,0.00,128,Wunderground v.1.15,2013-02-13 14:26:00,
2013-02-13 08:30:00,16.0,14.1,29.86,SSW,194,0.0,0.0,92,0.00,,,0.00,142,Wunderground v.1.15,2013-02-13 14:30:00,
2013-02-13 08:32:00,16.2,14.0,29.86,SSW,194,0.0,0.0,91,0.00,,,0.00,144,Wunderground v.1.15,2013-02-13 14:32:00,
2013-02-13 08:33:00,16.3,14.4,29.86,SSW,194,0.0,0.0,92,0.00,,,0.00,146,Wunderground v.1.15,2013-02-13 14:33:00,
2013-02-13 08:36:00,16.4,14.2,29.85,SSW,194,0.0,0.0,91,0.00,,,0.00,155,Wunderground v.1.15,2013-02-13 14:36:00,
2013-02-13 08:38:00,16.6,14.4,29.85,SSW,194,0.0,0.0,91,0.00,,,0.00,156,Wunderground v.1.15,2013-02-13 14:38:00,
2013-02-13 08:39:00,16.6,14.7,29.85,SSW,194,0.0,0.0,92,0.00,,,0.00,160,Wunderground v.1.15,2013-02-13 14:39:00,
2013-02-13 08:42:00,16.8,14.9,29.85,SSW,194,0.0,0.0,92,0.00,,,0.00,190,Wunderground v.1.15,2013-02-13 14:42:00,
2013-02-13 08:44:00,17.0,14.8,29.85,SSW,194,0.0,0.0,91,0.00,,,0.00,197,Wunderground v.1.15,2013-02-13 14:44:00,
2013-02-13 08:47:00,17.2,15.3,29.85,SSW,194,0.0,0.0,92,0.00,,,0.00,188,Wunderground v.1.15,2013-02-13 14:47:00,
2013-02-13 08:48:00,17.3,15.4,29.85,SSW,194,0.0,0.0,92,0.00,,,0.00,185,Wunderground v.1.15,2013-02-13 14:48:00,
2013-02-13 08:51:00,17.5,15.6,29.85,SSW,194,0.0,0.0,92,0.00,,,0.00,179,Wunderground v.1.15,2013-02-13 14:51:00,
2013-02-13 08:53:00,17.9,16.0,29.85,SSW,194,0.0,0.0,92,0.00,,,0.00,190,Wunderground v.1.15,2013-02-13 14:53:00,
2013-02-13 08:54:00,18.0,16.1,29.85,SSW,194,0.0,0.0,92,0.00,,,0.00,190,Wunderground v.1.15,2013-02-13 14:54:00,
2013-02-13 08:56:00,18.2,16.3,29.85,SSW,194,0.0,0.0,92,0.00,,,0.00,199,Wunderground v.1.15,2013-02-13 14:56:00,
2013-02-13 08:59:00,18.4,16.5,29.84,SSW,194,0.0,0.0,92,0.00,,,0.00,223,Wunderground v.1.15,2013-02-13 14:59:00,
2013-02-13 09:00:00,18.5,16.6,29.84,SSW,194,0.0,0.0,92,0.00,,,0.00,214,Wunderground v.1.15,2013-02-13 15:00:00,
2013-02-13 09:01:00,18.6,16.7,29.84,SSW,194,0.0,0.0,92,0.00,,,0.00,220,Wunderground v.1.15,2013-02-13 15:01:00,
2013-02-13 09:06:00,19.2,17.3,29.84,SSW,194,0.0,0.0,92,0.00,,,0.00,213,Wunderground v.1.15,2013-02-13 15:06:00,
2013-02-13 09:07:00,19.3,17.4,29.84,SSW,194,0.0,0.0,92,0.00,,,0.00,207,Wunderground v.1.15,2013-02-13 15:07:00,
2013-02-13 09:09:00,19.7,17.8,29.84,SSW,194,0.0,0.0,92,0.00,,,0.00,279,Wunderground v.1.15,2013-02-13 15:09:00,
2013-02-13 09:10:00,19.7,17.8,29.84,SSW,194,0.0,0.0,92,0.00,,,0.00,309,Wunderground v.1.15,2013-02-13 15:10:00,
2013-02-13 09:14:00,20.2,18.2,29.84,SSW,194,0.0,0.0,92,0.00,,,0.00,237,Wunderground v.1.15,2013-02-13 15:14:00,
2013-02-13 09:16:00,20.3,18.1,29.84,SSW,194,0.0,0.0,91,0.00,,,0.00,288,Wunderground v.1.15,2013-02-13 15:16:00,
2013-02-13 09:19:00,20.6,18.4,29.84,SSW,194,0.0,1.0,91,0.00,,,0.00,371,Wunderground v.1.15,2013-02-13 15:19:00,
2013-02-13 09:21:00,20.9,18.7,29.84,SSW,194,0.0,0.0,91,0.00,,,0.00,322,Wunderground v.1.15,2013-02-13 15:21:00,
2013-02-13 09:24:00,21.4,19.2,29.84,SSW,194,0.0,1.0,91,0.00,,,0.00,348,Wunderground v.1.15,2013-02-13 15:24:00,
2013-02-13 09:25:00,21.4,19.2,29.84,SSW,194,0.0,1.0,91,0.00,,,0.00,348,Wunderground v.1.15,2013-02-13 15:25:00,
2013-02-13 09:29:00,22.5,20.3,29.84,SSW,194,0.0,1.0,91,0.00,,,0.00,438,Wunderground v.1.15,2013-02-13 15:29:00,
2013-02-13 09:30:00,22.6,20.1,29.84,SSW,194,0.0,0.0,90,0.00,,,0.00,385,Wunderground v.1.15,2013-02-13 15:30:00,
2013-02-13 09:31:00,22.7,20.2,29.84,SSW,194,0.0,0.0,90,0.00,,,0.00,376,Wunderground v.1.15,2013-02-13 15:31:00,
2013-02-13 09:32:00,22.7,19.9,29.84,SSW,194,0.0,0.0,89,0.00,,,0.00,443,Wunderground v.1.15,2013-02-13 15:32:00,
2013-02-13 09:38:00,23.6,20.8,29.84,SSW,194,0.0,2.0,89,0.00,,,0.00,283,Wunderground v.1.15,2013-02-13 15:38:00,
2013-02-13 09:39:00,23.7,20.9,29.84,SSW,194,0.0,2.0,89,0.00,,,0.00,346,Wunderground v.1.15,2013-02-13 15:39:00,
2013-02-13 09:41:00,24.0,21.2,29.84,SSW,194,1.0,1.0,89,0.00,,,0.00,218,Wunderground v.1.15,2013-02-13 15:41:00,
2013-02-13 09:42:00,24.1,21.1,29.83,SSW,194,1.0,2.0,88,0.00,,,0.00,290,Wunderground v.1.15,2013-02-13 15:42:00,
2013-02-13 09:46:00,24.8,21.8,29.83,SSW,194,1.0,2.0,88,0.00,,,0.00,385,Wunderground v.1.15,2013-02-13 15:46:00,
2013-02-13 09:49:00,25.4,22.1,29.83,SSW,194,1.0,2.0,87,0.00,,,0.00,381,Wunderground v.1.15,2013-02-13 15:49:00,
2013-02-13 09:50:00,25.5,22.2,29.83,SSW,194,0.0,1.0,87,0.00,,,0.00,299,Wunderground v.1.15,2013-02-13 15:50:00,
2013-02-13 09:51:00,25.5,22.2,29.83,SSW,194,0.0,1.0,87,0.00,,,0.00,367,Wunderground v.1.15,2013-02-13 15:51:00,
2013-02-13 09:56:00,26.1,22.5,29.83,SSW,194,0.0,1.0,86,0.00,,,0.00,417,Wunderground v.1.15,2013-02-13 15:56:00,
2013-02-13 09:57:00,26.3,22.7,29.83,SSW,194,0.0,1.0,86,0.00,,,0.00,425,Wunderground v.1.15,2013-02-13 15:57:00,
2013-02-13 10:03:00,26.9,23.0,29.83,SSW,194,0.0,0.0,85,0.00,,,0.00,445,Wunderground v.1.15,2013-02-13 16:03:00,
2013-02-13 10:05:00,27.3,23.4,29.83,SSW,194,0.0,0.0,85,0.00,,,0.00,461,Wunderground v.1.15,2013-02-13 16:05:00,
2013-02-13 10:07:00,27.5,23.3,29.83,SSW,194,0.0,0.0,84,0.00,,,0.00,459,Wunderground v.1.15,2013-02-13 16:07:00,
2013-02-13 10:08:00,27.6,23.4,29.83,SSW,194,0.0,0.0,84,0.00,,,0.00,443,Wunderground v.1.15,2013-02-13 16:08:00,
2013-02-13 10:11:00,28.1,23.6,29.83,SSW,194,0.0,0.0,83,0.00,,,0.00,469,Wunderground v.1.15,2013-02-13 16:11:00,
2013-02-13 10:14:00,28.5,24.0,29.83,SSW,194,0.0,0.0,83,0.00,,,0.00,485,Wunderground v.1.15,2013-02-13 16:14:00,
2013-02-13 10:15:00,28.7,23.9,29.83,SSW,194,0.0,0.0,82,0.00,,,0.00,496,Wunderground v.1.15,2013-02-13 16:15:00,
2013-02-13 10:17:00,28.8,24.0,29.83,SSW,194,0.0,0.0,82,0.00,,,0.00,520,Wunderground v.1.15,2013-02-13 16:17:00,
2013-02-13 10:20:00,28.9,23.8,29.83,SSW,194,0.0,0.0,81,0.00,,,0.00,540,Wunderground v.1.15,2013-02-13 16:20:00,
2013-02-13 10:23:00,29.6,24.5,29.83,SSW,194,0.0,1.0,81,0.00,,,0.00,566,Wunderground v.1.15,2013-02-13 16:23:00,
2013-02-13 10:24:00,29.6,24.5,29.83,SSW,194,0.0,1.0,81,0.00,,,0.00,580,Wunderground v.1.15,2013-02-13 16:24:00,
2013-02-13 10:25:00,29.8,24.4,29.82,SSW,194,0.0,1.0,80,0.00,,,0.00,577,Wunderground v.1.15,2013-02-13 16:25:00,
2013-02-13 10:30:00,29.9,24.2,29.82,SSW,194,0.0,0.0,79,0.00,,,0.00,612,Wunderground v.1.15,2013-02-13 16:30:00,
2013-02-13 10:32:00,30.2,24.5,29.82,SSW,194,0.0,1.0,79,0.00,,,0.00,613,Wunderground v.1.15,2013-02-13 16:32:00,
2013-02-13 10:34:00,30.3,24.6,29.82,SSW,194,0.0,1.0,79,0.00,,,0.00,515,Wunderground v.1.15,2013-02-13 16:34:00,
2013-02-13 10:35:00,30.5,24.8,29.82,SSW,194,0.0,1.0,79,0.00,,,0.00,466,Wunderground v.1.15,2013-02-13 16:35:00,
2013-02-13 10:38:00,30.5,24.5,29.83,SSW,194,0.0,2.0,78,0.00,,,0.00,397,Wunderground v.1.15,2013-02-13 16:38:00,
2013-02-13 10:39:00,30.5,24.5,29.83,SSW,194,0.0,2.0,78,0.00,,,0.00,483,Wunderground v.1.15,2013-02-13 16:39:00,
2013-02-13 10:40:00,30.5,24.5,29.83,SSW,194,0.0,1.0,78,0.00,,,0.00,483,Wunderground v.1.15,2013-02-13 16:40:00,
2013-02-13 10:41:00,30.6,24.6,29.83,SSW,194,0.0,1.0,78,0.00,,,0.00,524,Wunderground v.1.15,2013-02-13 16:41:00,
2013-02-13 10:45:00,30.8,24.4,29.83,SSW,194,1.0,2.0,77,0.00,,,0.00,475,Wunderground v.1.15,2013-02-13 16:45:00,
2013-02-13 10:46:00,30.8,24.4,29.83,SSW,194,1.0,2.0,77,0.00,,,0.00,446,Wunderground v.1.15,2013-02-13 16:46:00,
2013-02-13 10:47:00,30.8,24.4,29.83,SSW,194,1.0,2.0,77,0.00,,,0.00,471,Wunderground v.1.15,2013-02-13 16:47:00,
2013-02-13 10:48:00,30.9,24.8,29.83,SSW,194,1.0,2.0,78,0.00,,,0.00,492,Wunderground v.1.15,2013-02-13 16:48:00,
2013-02-13 10:50:00,31.0,24.9,29.83,SSW,194,1.0,1.0,78,0.00,,,0.00,489,Wunderground v.1.15,2013-02-13 16:50:00,
2013-02-13 10:54:00,31.6,25.5,29.83,SSW,194,1.0,1.0,78,0.00,,,0.00,578,Wunderground v.1.15,2013-02-13 16:54:00,
2013-02-13 10:56:00,31.9,25.5,29.83,SSW,194,0.0,2.0,77,0.00,,,0.00,508,Wunderground v.1.15,2013-02-13 16:56:00,
2013-02-13 10:57:00,32.0,25.6,29.83,SSW,194,0.0,2.0,77,0.00,,,0.00,508,Wunderground v.1.15,2013-02-13 16:57:00,
2013-02-13 10:59:00,32.2,25.8,29.83,SSW,194,1.0,3.0,77,0.00,,,0.00,496,Wunderground v.1.15,2013-02-13 16:59:00,
2013-02-13 11:02:00,32.6,25.9,29.82,SSW,194,2.0,3.0,76,0.00,,,0.00,485,Wunderground v.1.15,2013-02-13 17:02:00,
2013-02-13 11:03:00,32.7,26.0,29.82,SSW,194,2.0,3.0,76,0.00,,,0.00,461,Wunderground v.1.15,2013-02-13 17:03:00,
2013-02-13 11:08:00,33.3,26.2,29.83,SSW,194,1.0,3.0,75,0.00,,,0.00,459,Wunderground v.1.15,2013-02-13 17:08:00,
2013-02-13 11:13:00,33.9,26.8,29.83,WSW,253,1.0,4.0,75,0.00,,,0.00,445,Wunderground v.1.15,2013-02-13 17:13:00,
2013-02-13 11:14:00,33.9,26.8,29.83,WSW,246,1.0,5.0,75,0.00,,,0.00,418,Wunderground v.1.15,2013-02-13 17:14:00,
2013-02-13 11:15:00,34.0,26.6,29.83,SW,229,2.0,5.0,74,0.00,,,0.00,420,Wunderground v.1.15,2013-02-13 17:15:00,
2013-02-13 11:18:00,33.9,26.8,29.83,SW,230,2.0,5.0,75,0.00,,,0.00,366,Wunderground v.1.15,2013-02-13 17:18:00,
2013-02-13 11:20:00,33.9,26.8,29.83,SW,233,3.0,3.0,75,0.00,,,0.00,359,Wunderground v.1.15,2013-02-13 17:20:00,
2013-02-13 11:21:00,33.8,26.4,29.83,SW,227,3.0,5.0,74,0.00,,,0.00,362,Wunderground v.1.15,2013-02-13 17:21:00,
2013-02-13 11:23:00,33.7,26.6,29.83,SW,226,3.0,5.0,75,0.00,,,0.00,329,Wunderground v.1.15,2013-02-13 17:23:00,
2013-02-13 11:27:00,33.6,26.5,29.82,WSW,252,2.0,5.0,75,0.00,,,0.00,346,Wunderground v.1.15,2013-02-13 17:27:00,
2013-02-13 11:29:00,33.5,26.4,29.82,WSW,243,2.0,5.0,75,0.00,,,0.00,334,Wunderground v.1.15,2013-02-13 17:29:00,
2013-02-13 11:30:00,33.5,26.4,29.82,WSW,239,2.0,3.0,75,0.00,,,0.00,327,Wunderground v.1.15,2013-02-13 17:30:00,
2013-02-13 11:34:00,33.6,26.8,29.82,WSW,238,3.0,8.0,76,0.00,,,0.00,410,Wunderground v.1.15,2013-02-13 17:34:00,
2013-02-13 11:35:00,33.7,26.9,29.82,WSW,238,3.0,8.0,76,0.00,,,0.00,394,Wunderground v.1.15,2013-02-13 17:35:00,
2013-02-13 11:36:00,33.7,26.9,29.82,SW,221,3.0,8.0,76,0.00,,,0.00,387,Wunderground v.1.15,2013-02-13 17:36:00,
2013-02-13 11:37:00,33.6,26.8,29.82,SW,224,3.0,8.0,76,0.00,,,0.00,332,Wunderground v.1.15,2013-02-13 17:37:00,
2013-02-13 11:39:00,33.5,26.7,29.82,SW,229,3.0,8.0,76,0.00,,,0.00,290,Wunderground v.1.15,2013-02-13 17:39:00,
2013-02-13 11:41:00,33.6,26.8,29.82,SW,232,3.0,3.0,76,0.00,,,0.00,429,Wunderground v.1.15,2013-02-13 17:41:00,
2013-02-13 11:42:00,33.6,26.5,29.82,SW,232,3.0,4.0,75,0.00,,,0.00,462,Wunderground v.1.15,2013-02-13 17:42:00,
2013-02-13 11:43:00,33.7,26.6,29.81,SW,232,3.0,5.0,75,0.00,,,0.00,434,Wunderground v.1.15,2013-02-13 17:43:00,
2013-02-13 11:45:00,33.8,26.7,29.82,West,264,3.0,5.0,75,0.00,,,0.00,482,Wunderground v.1.15,2013-02-13 17:45:00,
2013-02-13 11:49:00,34.4,27.0,29.81,SW,233,3.0,6.0,74,0.00,,,0.00,519,Wunderground v.1.15,2013-02-13 17:49:00,
2013-02-13 11:50:00,34.5,27.1,29.81,SW,236,3.0,3.0,74,0.00,,,0.00,519,Wunderground v.1.15,2013-02-13 17:50:00,
2013-02-13 11:55:00,34.4,27.0,29.81,SW,234,4.0,5.0,74,0.00,,,0.00,517,Wunderground v.1.15,2013-02-13 17:55:00,
2013-02-13 11:56:00,34.5,27.1,29.81,SW,236,4.0,5.0,74,0.00,,,0.00,503,Wunderground v.1.15,2013-02-13 17:56:00,
2013-02-13 11:58:00,34.6,27.2,29.81,SW,236,3.0,5.0,74,0.00,,,0.00,573,Wunderground v.1.15,2013-02-13 17:58:00,
2013-02-13 11:59:00,34.6,26.8,29.81,SW,236,3.0,5.0,73,0.00,,,0.00,570,Wunderground v.1.15,2013-02-13 17:59:00,
2013-02-13 12:00:00,34.8,27.0,29.81,WSW,238,3.0,6.0,73,0.00,,,0.00,594,Wunderground v.1.15,2013-02-13 18:00:00,
2013-02-13 12:02:00,35.0,27.2,29.81,SW,227,4.0,6.0,73,0.00,,,0.00,591,Wunderground v.1.15,2013-02-13 18:02:00,
2013-02-13 12:03:00,35.2,27.1,29.81,SW,236,4.0,6.0,72,0.00,,,0.00,589,Wunderground v.1.15,2013-02-13 18:03:00,
2013-02-13 12:05:00,35.2,27.1,29.81,SW,234,4.0,6.0,72,0.00,,,0.00,584,Wunderground v.1.15,2013-02-13 18:05:00,
2013-02-13 12:06:00,35.2,27.1,29.81,WSW,237,4.0,6.0,72,0.00,,,0.00,584,Wunderground v.1.15,2013-02-13 18:06:00,
2013-02-13 12:09:00,35.4,27.3,29.81,WSW,238,4.0,6.0,72,0.00,,,0.00,582,Wunderground v.1.15,2013-02-13 18:09:00,
2013-02-13 12:14:00,35.4,27.3,29.81,SW,227,4.0,6.0,72,0.00,,,0.00,580,Wunderground v.1.15,2013-02-13 18:14:00,
2013-02-13 12:15:00,35.4,27.3,29.81,WSW,242,4.0,6.0,72,0.00,,,0.00,577,Wunderground v.1.15,2013-02-13 18:15:00,
2013-02-13 12:16:00,35.5,27.4,29.81,WSW,254,4.0,6.0,72,0.00,,,0.00,575,Wunderground v.1.15,2013-02-13 18:16:00,
2013-02-13 12:20:00,35.9,27.4,29.81,WSW,246,4.0,4.0,71,0.00,,,0.00,577,Wunderground v.1.15,2013-02-13 18:20:00,
2013-02-13 12:21:00,35.9,27.4,29.81,SW,227,4.0,4.0,71,0.00,,,0.00,573,Wunderground v.1.15,2013-02-13 18:21:00,
2013-02-13 12:25:00,35.9,27.1,29.80,SW,234,4.0,7.0,70,0.00,,,0.00,571,Wunderground v.1.15,2013-02-13 18:25:00,
2013-02-13 12:26:00,35.8,27.0,29.80,WSW,238,4.0,7.0,70,0.00,,,0.00,573,Wunderground v.1.15,2013-02-13 18:26:00,
2013-02-13 12:30:00,36.1,27.6,29.80,SW,227,4.0,4.0,71,0.00,,,0.00,571,Wunderground v.1.15,2013-02-13 18:30:00,
2013-02-13 12:31:00,36.1,27.6,29.80,SW,232,4.0,4.0,71,0.00,,,0.00,570,Wunderground v.1.15,2013-02-13 18:31:00,
2013-02-13 12:32:00,36.2,27.7,29.80,SW,221,4.0,7.0,71,0.00,,,0.00,571,Wunderground v.1.15,2013-02-13 18:32:00,
2013-02-13 12:36:00,36.2,27.4,29.80,SW,228,4.0,8.0,70,0.00,,,0.00,570,Wunderground v.1.15,2013-02-13 18:36:00,
2013-02-13 12:37:00,36.2,27.4,29.80,SSW,212,4.0,8.0,70,0.00,,,0.00,570,Wunderground v.1.15,2013-02-13 18:37:00,
2013-02-13 12:42:00,36.2,27.4,29.80,SW,229,5.0,5.0,70,0.00,,,0.00,566,Wunderground v.1.15,2013-02-13 18:42:00,
2013-02-13 12:43:00,36.3,27.4,29.80,SW,234,5.0,7.0,70,0.00,,,0.00,564,Wunderground v.1.15,2013-02-13 18:43:00,
2013-02-13 12:45:00,36.3,27.4,29.80,SW,234,5.0,7.0,70,0.00,,,0.00,564,Wunderground v.1.15,2013-02-13 18:45:00,
2013-02-13 12:47:00,36.4,27.5,29.80,SW,234,5.0,7.0,70,0.00,,,0.00,561,Wunderground v.1.15,2013-02-13 18:47:00,
2013-02-13 12:48:00,36.5,27.6,29.80,SW,231,5.0,7.0,70,0.00,,,0.00,564,Wunderground v.1.15,2013-02-13 18:48:00,
2013-02-13 12:49:00,36.5,27.6,29.80,SW,232,5.0,7.0,70,0.00,,,0.00,564,Wunderground v.1.15,2013-02-13 18:49:00,
2013-02-13 12:53:00,36.5,27.3,29.80,SW,229,4.0,6.0,69,0.00,,,0.00,563,Wunderground v.1.15,2013-02-13 18:53:00,
2013-02-13 12:54:00,36.6,27.7,29.80,SW,229,4.0,6.0,70,0.00,,,0.00,561,Wunderground v.1.15,2013-02-13 18:54:00,
2013-02-13 12:59:00,36.7,27.5,29.80,SW,233,4.0,7.0,69,0.00,,,0.00,566,Wunderground v.1.15,2013-02-13 18:59:00,
2013-02-13 13:01:00,36.7,27.5,29.80,WSW,241,5.0,5.0,69,0.00,,,0.00,568,Wunderground v.1.15,2013-02-13 19:01:00,
2013-02-13 13:04:00,37.0,27.8,29.80,WSW,245,4.0,5.0,69,0.00,,,0.00,580,Wunderground v.1.15,2013-02-13 19:04:00,
2013-02-13 13:05:00,37.0,27.8,29.80,WSW,240,4.0,5.0,69,0.00,,,0.00,589,Wunderground v.1.15,2013-02-13 19:05:00,
2013-02-13 13:06:00,37.0,27.4,29.80,WSW,240,5.0,5.0,68,0.00,,,0.00,603,Wunderground v.1.15,2013-02-13 19:06:00,
2013-02-13 13:10:00,37.1,27.5,29.80,WSW,242,3.0,3.0,68,0.00,,,0.00,647,Wunderground v.1.15,2013-02-13 19:10:00,
2013-02-13 13:13:00,37.2,27.2,29.79,SW,232,3.0,5.0,67,0.00,,,0.00,684,Wunderground v.1.15,2013-02-13 19:13:00,
2013-02-13 13:15:00,37.3,27.3,29.79,WSW,243,3.0,5.0,67,0.00,,,0.00,661,Wunderground v.1.15,2013-02-13 19:15:00,
2013-02-13 13:17:00,37.4,27.4,29.79,SW,227,3.0,5.0,67,0.00,,,0.00,719,Wunderground v.1.15,2013-02-13 19:17:00,
2013-02-13 13:18:00,37.4,27.4,29.79,SW,227,3.0,5.0,67,0.00,,,0.00,568,Wunderground v.1.15,2013-02-13 19:18:00,
2013-02-13 13:19:00,37.5,27.5,29.79,SW,227,4.0,5.0,67,0.00,,,0.00,649,Wunderground v.1.15,2013-02-13 19:19:00,
2013-02-13 13:22:00,37.8,27.8,29.80,SW,220,3.0,4.0,67,0.00,,,0.00,742,Wunderground v.1.15,2013-02-13 19:22:00,
2013-02-13 13:24:00,37.8,27.5,29.80,SW,220,3.0,4.0,66,0.00,,,0.00,330,Wunderground v.1.15,2013-02-13 19:24:00,
2013-02-13 13:29:00,37.7,27.7,29.80,WSW,242,3.0,4.0,67,0.00,,,0.00,322,Wunderground v.1.15,2013-02-13 19:29:00,
2013-02-13 13:32:00,37.7,27.4,29.79,SW,233,3.0,6.0,66,0.00,,,0.00,313,Wunderground v.1.15,2013-02-13 19:32:00,
2013-02-13 13:34:00,37.7,27.4,29.79,SW,230,3.0,6.0,66,0.00,,,0.00,306,Wunderground v.1.15,2013-02-13 19:34:00,
2013-02-13 13:38:00,37.6,27.6,29.79,SW,225,3.0,7.0,67,0.00,,,0.00,299,Wunderground v.1.15,2013-02-13 19:38:00,
2013-02-13 13:39:00,37.5,27.5,29.79,SW,226,3.0,7.0,67,0.00,,,0.00,297,Wunderground v.1.15,2013-02-13 19:39:00,
2013-02-13 13:40:00,37.5,27.5,29.79,SW,218,3.0,7.0,67,0.00,,,0.00,295,Wunderground v.1.15,2013-02-13 19:40:00,
2013-02-13 13:44:00,37.6,27.6,29.80,SSW,210,4.0,7.0,67,0.00,,,0.00,287,Wunderground v.1.15,2013-02-13 19:44:00,
2013-02-13 13:45:00,37.6,27.6,29.80,SW,218,4.0,7.0,67,0.00,,,0.00,287,Wunderground v.1.15,2013-02-13 19:45:00,
2013-02-13 13:46:00,37.6,28.0,29.80,WSW,239,4.0,7.0,68,0.00,,,0.00,285,Wunderground v.1.15,2013-02-13 19:46:00,
2013-02-13 13:49:00,37.6,27.3,29.80,SW,227,5.0,7.0,66,0.00,,,0.00,279,Wunderground v.1.15,2013-02-13 19:49:00,
2013-02-13 13:50:00,37.6,27.6,29.80,SSW,211,5.0,7.0,67,0.00,,,0.00,278,Wunderground v.1.15,2013-02-13 19:50:00,
2013-02-13 13:53:00,37.5,27.5,29.80,WSW,242,5.0,7.0,67,0.00,,,0.00,264,Wunderground v.1.15,2013-02-13 19:53:00,
2013-02-13 13:54:00,37.5,27.5,29.80,WSW,247,5.0,7.0,67,0.00,,,0.00,262,Wunderground v.1.15,2013-02-13 19:54:00,
2013-02-13 13:56:00,37.5,27.5,29.80,SW,233,5.0,7.0,67,0.00,,,0.00,260,Wunderground v.1.15,2013-02-13 19:56:00,
2013-02-13 13:58:00,37.4,27.8,29.80,SW,224,4.0,7.0,68,0.00,,,0.00,272,Wunderground v.1.15,2013-02-13 19:58:00,
2013-02-13 14:02:00,37.5,27.5,29.80,SSW,213,3.0,6.0,67,0.00,,,0.00,285,Wunderground v.1.15,2013-02-13 20:02:00,
2013-02-13 14:03:00,37.4,27.4,29.80,SSW,210,4.0,6.0,67,0.00,,,0.00,281,Wunderground v.1.15,2013-02-13 20:03:00,
2013-02-13 14:04:00,37.4,27.4,29.80,SSW,201,3.0,6.0,67,0.00,,,0.00,279,Wunderground v.1.15,2013-02-13 20:04:00,
2013-02-13 14:09:00,37.4,27.8,29.79,SW,223,3.0,6.0,68,0.00,,,0.00,294,Wunderground v.1.15,2013-02-13 20:09:00,
2013-02-13 14:10:00,37.4,27.8,29.80,SW,218,3.0,4.0,68,0.00,,,0.00,295,Wunderground v.1.15,2013-02-13 20:10:00,
2013-02-13 14:15:00,37.5,27.9,29.80,WNW,292,2.0,5.0,68,0.00,,,0.00,272,Wunderground v.1.15,2013-02-13 20:15:00,
2013-02-13 14:16:00,37.5,27.9,29.79,WSW,245,3.0,5.0,68,0.00,,,0.00,264,Wunderground v.1.15,2013-02-13 20:16:00,
2013-02-13 14:21:00,37.3,27.7,29.80,WSW,237,3.0,4.0,68,0.00,,,0.00,257,Wunderground v.1.15,2013-02-13 20:21:00,
2013-02-13 14:22:00,37.3,27.3,29.80,SW,232,3.0,4.0,67,0.00,,,0.00,258,Wunderground v.1.15,2013-02-13 20:22:00,
2013-02-13 14:23:00,37.3,27.3,29.80,SW,232,3.0,4.0,67,0.00,,,0.00,255,Wunderground v.1.15,2013-02-13 20:23:00,
2013-02-13 14:27:00,37.2,27.6,29.79,SW,232,3.0,4.0,68,0.00,,,0.00,243,Wunderground v.1.15,2013-02-13 20:27:00,
2013-02-13 14:28:00,37.1,27.2,29.80,SW,232,3.0,4.0,67,0.00,,,0.00,239,Wunderground v.1.15,2013-02-13 20:28:00,
2013-02-13 14:30:00,37.1,27.5,29.79,NW,316,2.0,2.0,68,0.00,,,0.00,236,Wunderground v.1.15,2013-02-13 20:30:00,
2013-02-13 14:35:00,37.2,27.6,29.79,West,277,2.0,2.0,68,0.00,,,0.00,227,Wunderground v.1.15,2013-02-13 20:35:00,
2013-02-13 14:36:00,37.2,27.6,29.79,West,277,2.0,2.0,68,0.00,,,0.00,225,Wunderground v.1.15,2013-02-13 20:36:00,
2013-02-13 14:41:00,37.2,27.2,29.79,West,277,1.0,3.0,67,0.00,,,0.00,211,Wunderground v.1.15,2013-02-13 20:41:00,
2013-02-13 14:43:00,37.2,27.2,29.79,West,277,1.0,3.0,67,0.00,,,0.00,202,Wunderground v.1.15,2013-02-13 20:43:00,
2013-02-13 14:46:00,37.2,27.2,29.79,SW,236,2.0,5.0,67,0.00,,,0.00,197,Wunderground v.1.15,2013-02-13 20:46:00,
2013-02-13 14:50:00,37.3,27.3,29.79,SW,236,2.0,2.0,67,0.00,,,0.00,188,Wunderground v.1.15,2013-02-13 20:50:00,
2013-02-13 14:52:00,37.2,27.6,29.79,SW,236,2.0,2.0,68,0.00,,,0.00,183,Wunderground v.1.15,2013-02-13 20:52:00,
2013-02-13 14:53:00,37.2,28.0,29.79,SW,236,2.0,3.0,69,0.00,,,0.00,183,Wunderground v.1.15,2013-02-13 20:53:00,
2013-02-13 14:57:00,37.2,27.6,29.79,SW,234,2.0,4.0,68,0.00,,,0.00,186,Wunderground v.1.15,2013-02-13 20:57:00,
2013-02-13 14:58:00,37.3,27.7,29.79,SW,234,2.0,4.0,68,0.00,,,0.00,188,Wunderground v.1.15,2013-02-13 20:58:00,
2013-02-13 15:02:00,37.4,27.8,29.79,SW,234,2.0,2.0,68,0.00,,,0.00,188,Wunderground v.1.15,2013-02-13 21:02:00,
2013-02-13 15:03:00,37.4,27.8,29.79,SW,234,2.0,2.0,68,0.00,,,0.00,185,Wunderground v.1.15,2013-02-13 21:03:00,
2013-02-13 15:04:00,37.4,27.8,29.79,SW,234,2.0,2.0,68,0.00,,,0.00,183,Wunderground v.1.15,2013-02-13 21:04:00,
2013-02-13 15:07:00,37.5,27.9,29.79,SW,234,1.0,3.0,68,0.00,,,0.00,179,Wunderground v.1.15,2013-02-13 21:07:00,
2013-02-13 15:09:00,37.5,27.9,29.79,SW,234,1.0,3.0,68,0.00,,,0.00,176,Wunderground v.1.15,2013-02-13 21:09:00,
2013-02-13 15:10:00,37.6,28.0,29.80,SW,234,1.0,2.0,68,0.00,,,0.00,171,Wunderground v.1.15,2013-02-13 21:10:00,
2013-02-13 15:12:00,37.7,27.7,29.79,SW,234,1.0,2.0,67,0.00,,,0.00,162,Wunderground v.1.15,2013-02-13 21:12:00,
2013-02-13 15:15:00,37.7,27.7,29.80,SW,234,2.0,4.0,67,0.00,,,0.00,148,Wunderground v.1.15,2013-02-13 21:15:00,
2013-02-13 15:18:00,37.6,28.0,29.80,SW,229,2.0,4.0,68,0.00,,,0.00,141,Wunderground v.1.15,2013-02-13 21:18:00,
2013-02-13 15:19:00,37.6,28.0,29.80,SW,229,2.0,4.0,68,0.00,,,0.00,139,Wunderground v.1.15,2013-02-13 21:19:00,
2013-02-13 15:23:00,37.5,27.9,29.79,SW,226,2.0,2.0,68,0.00,,,0.00,127,Wunderground v.1.15,2013-02-13 21:23:00,
2013-02-13 15:25:00,37.5,27.9,29.79,South,175,2.0,3.0,68,0.00,,,0.00,123,Wunderground v.1.15,2013-02-13 21:25:00,
2013-02-13 15:29:00,37.4,27.8,29.80,South,181,1.0,5.0,68,0.00,,,0.00,118,Wunderground v.1.15,2013-02-13 21:29:00,
2013-02-13 15:30:00,37.4,27.8,29.79,South,189,2.0,2.0,68,0.00,,,0.00,118,Wunderground v.1.15,2013-02-13 21:30:00,
2013-02-13 15:32:00,37.4,27.8,29.79,SW,215,2.0,5.0,68,0.00,,,0.00,123,Wunderground v.1.15,2013-02-13 21:32:00,
2013-02-13 15:35:00,37.4,27.8,29.80,SW,215,3.0,5.0,68,0.00,,,0.00,121,Wunderground v.1.15,2013-02-13 21:35:00,
2013-02-13 15:40:00,37.4,28.2,29.80,SW,224,3.0,4.0,69,0.00,,,0.00,114,Wunderground v.1.15,2013-02-13 21:40:00,
2013-02-13 15:41:00,37.3,28.1,29.80,SW,224,3.0,4.0,69,0.00,,,0.00,113,Wunderground v.1.15,2013-02-13 21:41:00,
2013-02-13 15:45:00,37.2,28.0,29.80,South,180,3.0,6.0,69,0.00,,,0.00,104,Wunderground v.1.15,2013-02-13 21:45:00,
2013-02-13 15:46:00,37.2,28.0,29.79,South,180,3.0,6.0,69,0.00,,,0.00,102,Wunderground v.1.15,2013-02-13 21:46:00,
2013-02-13 15:50:00,37.1,27.9,29.80,South,190,3.0,3.0,69,0.00,,,0.00,88,Wunderground v.1.15,2013-02-13 21:50:00,
2013-02-13 15:53:00,37.1,27.9,29.80,South,184,3.0,5.0,69,0.00,,,0.00,81,Wunderground v.1.15,2013-02-13 21:53:00,
2013-02-13 15:54:00,37.1,27.9,29.80,South,183,3.0,5.0,69,0.00,,,0.00,81,Wunderground v.1.15,2013-02-13 21:54:00,
2013-02-13 15:57:00,37.1,27.9,29.80,SSW,209,3.0,5.0,69,0.00,,,0.00,86,Wunderground v.1.15,2013-02-13 21:57:00,
2013-02-13 15:58:00,37.1,27.9,29.80,SSW,204,3.0,5.0,69,0.00,,,0.00,84,Wunderground v.1.15,2013-02-13 21:58:00,
2013-02-13 16:00:00,37.1,27.9,29.80,SSW,204,3.0,3.0,69,0.00,,,0.00,83,Wunderground v.1.15,2013-02-13 22:00:00,
2013-02-13 16:04:00,37.1,27.9,29.80,South,175,3.0,6.0,69,0.00,,,0.00,72,Wunderground v.1.15,2013-02-13 22:04:00,
2013-02-13 16:05:00,37.1,27.9,29.80,South,175,3.0,6.0,69,0.00,,,0.00,70,Wunderground v.1.15,2013-02-13 22:05:00,
2013-02-13 16:06:00,37.0,28.1,29.80,SSW,195,3.0,6.0,70,0.00,,,0.00,67,Wunderground v.1.15,2013-02-13 22:06:00,
2013-02-13 16:09:00,37.0,27.8,29.80,SSW,195,3.0,6.0,69,0.00,,,0.00,63,Wunderground v.1.15,2013-02-13 22:09:00,
2013-02-13 16:10:00,37.0,27.8,29.80,SSW,193,3.0,4.0,69,0.00,,,0.00,62,Wunderground v.1.15,2013-02-13 22:10:00,
2013-02-13 16:12:00,37.1,27.9,29.80,South,183,3.0,4.0,69,0.00,,,0.00,54,Wunderground v.1.15,2013-02-13 22:12:00,
2013-02-13 16:15:00,37.0,27.8,29.80,South,190,3.0,6.0,69,0.00,,,0.00,62,Wunderground v.1.15,2013-02-13 22:15:00,
2013-02-13 16:16:00,37.1,27.9,29.79,SSW,196,3.0,6.0,69,0.00,,,0.00,65,Wunderground v.1.15,2013-02-13 22:16:00,
2013-02-13 16:20:00,37.0,27.8,29.80,South,188,3.0,3.0,69,0.00,,,0.00,62,Wunderground v.1.15,2013-02-13 22:20:00,
2013-02-13 16:21:00,37.0,27.8,29.79,South,190,3.0,5.0,69,0.00,,,0.00,60,Wunderground v.1.15,2013-02-13 22:21:00,
2013-02-13 16:22:00,37.0,27.8,29.79,SSW,209,3.0,5.0,69,0.00,,,0.00,56,Wunderground v.1.15,2013-02-13 22:22:00,
2013-02-13 16:26:00,37.0,28.1,29.80,SSW,193,3.0,5.0,70,0.00,,,0.00,62,Wunderground v.1.15,2013-02-13 22:26:00,
2013-02-13 16:30:00,37.0,27.8,29.80,SSW,213,3.0,4.0,69,0.00,,,0.00,74,Wunderground v.1.15,2013-02-13 22:30:00,
2013-02-13 16:31:00,37.0,27.8,29.79,SSW,213,4.0,5.0,69,0.00,,,0.00,72,Wunderground v.1.15,2013-02-13 22:31:00,
2013-02-13 16:35:00,37.1,27.9,29.79,SSW,203,4.0,5.0,69,0.00,,,0.00,74,Wunderground v.1.15,2013-02-13 22:35:00,
2013-02-13 16:36:00,37.1,27.9,29.79,SSW,213,4.0,6.0,69,0.00,,,0.00,76,Wunderground v.1.15,2013-02-13 22:36:00,
2013-02-13 16:37:00,37.1,27.9,29.79,SSW,204,4.0,6.0,69,0.00,,,0.00,76,Wunderground v.1.15,2013-02-13 22:37:00,
2013-02-13 16:40:00,37.0,27.8,29.79,South,172,4.0,4.0,69,0.00,,,0.00,74,Wunderground v.1.15,2013-02-13 22:40:00,
2013-02-13 16:42:00,37.0,28.1,29.79,South,176,4.0,4.0,70,0.00,,,0.00,70,Wunderground v.1.15,2013-02-13 22:42:00,
2013-02-13 16:43:00,37.0,28.1,29.79,South,177,3.0,4.0,70,0.00,,,0.00,67,Wunderground v.1.15,2013-02-13 22:43:00,
2013-02-13 16:46:00,37.0,27.8,29.79,SW,223,3.0,8.0,69,0.00,,,0.00,60,Wunderground v.1.15,2013-02-13 22:46:00,
2013-02-13 16:48:00,37.0,27.8,29.79,SW,217,4.0,8.0,69,0.00,,,0.00,51,Wunderground v.1.15,2013-02-13 22:48:00,
2013-02-13 16:50:00,37.0,27.8,29.79,SSW,211,4.0,7.0,69,0.00,,,0.00,46,Wunderground v.1.15,2013-02-13 22:50:00,
2013-02-13 16:54:00,36.9,27.7,29.79,SSW,207,5.0,8.0,69,0.00,,,0.00,37,Wunderground v.1.15,2013-02-13 22:54:00,
2013-02-13 16:55:00,36.9,27.7,29.79,SSW,206,6.0,8.0,69,0.00,,,0.00,35,Wunderground v.1.15,2013-02-13 22:55:00,
2013-02-13 16:56:00,36.9,27.7,29.79,SSW,210,6.0,9.0,69,0.00,,,0.00,33,Wunderground v.1.15,2013-02-13 22:56:00,
2013-02-13 16:59:00,36.8,27.6,29.79,SSW,209,6.0,9.0,69,0.00,,,0.00,32,Wunderground v.1.15,2013-02-13 22:59:00,
2013-02-13 17:02:00,36.8,27.9,29.79,SSW,198,5.0,6.0,70,0.00,,,0.00,28,Wunderground v.1.15,2013-02-13 23:02:00,
2013-02-13 17:04:00,36.7,27.8,29.79,SSW,198,4.0,6.0,70,0.00,,,0.00,25,Wunderground v.1.15,2013-02-13 23:04:00,
2013-02-13 17:05:00,36.7,27.8,29.79,SSW,198,4.0,6.0,70,0.00,,,0.00,25,Wunderground v.1.15,2013-02-13 23:05:00,
2013-02-13 17:07:00,36.6,27.7,29.79,SSW,198,3.0,6.0,70,0.00,,,0.00,19,Wunderground v.1.15,2013-02-13 23:07:00,
2013-02-13 17:09:00,36.5,28.0,29.79,South,180,2.0,6.0,71,0.00,,,0.00,19,Wunderground v.1.15,2013-02-13 23:09:00,
2013-02-13 17:11:00,36.5,27.6,29.79,South,173,2.0,5.0,70,0.00,,,0.00,18,Wunderground v.1.15,2013-02-13 23:11:00,
2013-02-13 17:15:00,36.5,27.6,29.79,South,184,3.0,5.0,70,0.00,,,0.00,12,Wunderground v.1.15,2013-02-13 23:15:00,
2013-02-13 17:17:00,36.5,28.0,29.78,South,184,3.0,5.0,71,0.00,,,0.00,11,Wunderground v.1.15,2013-02-13 23:17:00,
2013-02-13 17:19:00,36.4,27.9,29.79,South,184,3.0,5.0,71,0.00,,,0.00,7,Wunderground v.1.15,2013-02-13 23:19:00,
2013-02-13 17:20:00,36.4,27.9,29.79,South,184,3.0,3.0,71,0.00,,,0.00,7,Wunderground v.1.15,2013-02-13 23:20:00,
2013-02-13 17:22:00,36.3,27.8,29.78,South,184,2.0,3.0,71,0.00,,,0.00,5,Wunderground v.1.15,2013-02-13 23:22:00,
2013-02-13 17:25:00,36.2,27.7,29.78,South,169,2.0,3.0,71,0.00,,,0.00,0,Wunderground v.1.15,2013-02-13 23:25:00,
2013-02-13 17:26:00,36.2,28.0,29.79,South,169,2.0,3.0,72,0.00,,,0.00,0,Wunderground v.1.15,2013-02-13 23:26:00,
2013-02-13 17:27:00,36.2,28.0,29.78,SSE,163,2.0,4.0,72,0.00,,,0.00,0,Wunderground v.1.15,2013-02-13 23:27:00,
2013-02-13 17:31:00,36.1,27.9,29.79,SSE,165,2.0,4.0,72,0.00,,,0.00,0,Wunderground v.1.15,2013-02-13 23:31:00,
2013-02-13 17:32:00,36.1,27.9,29.79,SSE,163,3.0,4.0,72,0.00,,,0.00,0,Wunderground v.1.15,2013-02-13 23:32:00,
2013-02-13 17:34:00,36.0,28.2,29.79,SSE,163,3.0,4.0,73,0.00,,,0.00,0,Wunderground v.1.15,2013-02-13 23:34:00,
2013-02-13 17:35:00,36.0,28.2,29.79,SSE,163,3.0,4.0,73,0.00,,,0.00,0,Wunderground v.1.15,2013-02-13 23:35:00,
2013-02-13 17:36:00,36.0,28.2,29.79,SSE,163,3.0,4.0,73,0.00,,,0.00,0,Wunderground v.1.15,2013-02-13 23:36:00,
2013-02-13 17:40:00,35.9,28.1,29.79,SSE,162,3.0,4.0,73,0.00,,,0.00,0,Wunderground v.1.15,2013-02-13 23:40:00,
2013-02-13 17:41:00,35.9,28.1,29.79,SSE,162,3.0,4.0,73,0.00,,,0.00,0,Wunderground v.1.15,2013-02-13 23:41:00,
2013-02-13 17:42:00,35.9,28.1,29.79,SSE,163,3.0,4.0,73,0.00,,,0.00,0,Wunderground v.1.15,2013-02-13 23:42:00,
2013-02-13 17:44:00,35.8,28.0,29.79,SSE,163,3.0,4.0,73,0.00,,,0.00,0,Wunderground v.1.15,2013-02-13 23:44:00,
2013-02-13 17:47:00,35.8,28.3,29.79,SSE,163,2.0,4.0,74,0.00,,,0.00,0,Wunderground v.1.15,2013-02-13 23:47:00,
2013-02-13 17:49:00,35.7,28.2,29.79,SSE,163,2.0,4.0,74,0.00,,,0.00,0,Wunderground v.1.15,2013-02-13 23:49:00,
2013-02-13 17:51:00,35.7,28.2,29.79,SSE,163,1.0,2.0,74,0.00,,,0.00,0,Wunderground v.1.15,2013-02-13 23:51:00,
2013-02-13 17:53:00,35.7,28.2,29.79,SSE,163,1.0,2.0,74,0.00,,,0.00,0,Wunderground v.1.15,2013-02-13 23:53:00,
2013-02-13 17:55:00,35.6,28.1,29.79,SSE,163,1.0,2.0,74,0.00,,,0.00,0,Wunderground v.1.15,2013-02-13 23:55:00,
2013-02-13 17:56:00,35.6,28.1,29.79,SSE,163,1.0,2.0,74,0.00,,,0.00,0,Wunderground v.1.15,2013-02-13 23:56:00,
2013-02-13 18:01:00,35.6,28.1,29.79,SSE,163,1.0,1.0,74,0.00,,,0.00,0,Wunderground v.1.15,2013-02-14 00:01:00,
2013-02-13 18:02:00,35.5,28.0,29.79,SSE,163,1.0,4.0,74,0.00,,,0.00,0,Wunderground v.1.15,2013-02-14 00:02:00,
2013-02-13 18:06:00,35.5,28.0,29.79,SSE,163,2.0,4.0,74,0.00,,,0.00,0,Wunderground v.1.15,2013-02-14 00:06:00,
2013-02-13 18:09:00,35.5,28.0,29.79,SSE,163,1.0,4.0,74,0.00,,,0.00,0,Wunderground v.1.15,2013-02-14 00:09:00,
2013-02-13 18:12:00,35.4,27.9,29.78,SSE,163,1.0,2.0,74,0.00,,,0.00,0,Wunderground v.1.15,2013-02-14 00:12:00,
2013-02-13 18:14:00,35.4,27.9,29.78,SSE,163,1.0,2.0,74,0.00,,,0.00,0,Wunderground v.1.15,2013-02-14 00:14:00,
2013-02-13 18:18:00,35.3,27.8,29.78,SSE,163,1.0,2.0,74,0.00,,,0.00,0,Wunderground v.1.15,2013-02-14 00:18:00,
2013-02-13 18:19:00,35.3,27.8,29.78,SSE,163,1.0,2.0,74,0.00,,,0.00,0,Wunderground v.1.15,2013-02-14 00:19:00,
2013-02-13 18:20:00,35.3,27.8,29.78,SSE,163,1.0,1.0,74,0.00,,,0.00,0,Wunderground v.1.15,2013-02-14 00:20:00,
2013-02-13 18:22:00,35.3,27.8,29.78,SSE,163,1.0,1.0,74,0.00,,,0.00,0,Wunderground v.1.15,2013-02-14 00:22:00,
2013-02-13 18:27:00,35.0,27.9,29.78,SSE,163,1.0,2.0,75,0.00,,,0.00,0,Wunderground v.1.15,2013-02-14 00:27:00,
2013-02-13 18:29:00,35.0,27.9,29.78,SSE,163,0.0,2.0,75,0.00,,,0.00,0,Wunderground v.1.15,2013-02-14 00:29:00,
2013-02-13 18:32:00,35.0,27.9,29.78,SSE,163,0.0,0.0,75,0.00,,,0.00,0,Wunderground v.1.15,2013-02-14 00:32:00,
2013-02-13 18:34:00,35.0,27.9,29.78,SSE,163,0.0,0.0,75,0.00,,,0.00,0,Wunderground v.1.15,2013-02-14 00:34:00,
2013-02-13 18:38:00,35.0,27.9,29.78,SSE,163,1.0,2.0,75,0.00,,,0.00,0,Wunderground v.1.15,2013-02-14 00:38:00,
2013-02-13 18:41:00,34.9,27.8,29.78,SSE,163,1.0,1.0,75,0.00,,,0.00,0,Wunderground v.1.15,2013-02-14 00:41:00,
2013-02-13 18:42:00,34.8,28.0,29.78,SSE,163,1.0,1.0,76,0.00,,,0.00,0,Wunderground v.1.15,2013-02-14 00:42:00,
2013-02-13 18:43:00,34.8,28.0,29.78,SSE,163,1.0,1.0,76,0.00,,,0.00,0,Wunderground v.1.15,2013-02-14 00:43:00,
2013-02-13 18:44:00,34.7,27.9,29.78,SSE,163,1.0,1.0,76,0.00,,,0.00,0,Wunderground v.1.15,2013-02-14 00:44:00,
2013-02-13 18:49:00,34.6,27.8,29.78,SSE,163,1.0,2.0,76,0.00,,,0.00,0,Wunderground v.1.15,2013-02-14 00:49:00,
2013-02-13 18:50:00,34.6,27.8,29.78,SSE,163,1.0,1.0,76,0.00,,,0.00,0,Wunderground v.1.15,2013-02-14 00:50:00,
2013-02-13 18:54:00,34.5,28.0,29.78,SSE,163,1.0,4.0,77,0.00,,,0.00,0,Wunderground v.1.15,2013-02-14 00:54:00,
2013-02-13 18:57:00,34.4,27.9,29.79,SSE,163,1.0,4.0,77,0.00,,,0.00,0,Wunderground v.1.15,2013-02-14 00:57:00,
2013-02-13 19:00:00,34.4,28.2,29.78,SSE,163,1.0,1.0,78,0.00,,,0.00,0,Wunderground v.1.15,2013-02-14 01:00:00,
2013-02-13 19:04:00,34.3,28.2,29.79,SSE,163,1.0,1.0,78,0.00,,,0.00,0,Wunderground v.1.15,2013-02-14 01:04:00,
2013-02-13 19:06:00,34.3,28.2,29.79,SSE,163,1.0,1.0,78,0.00,,,0.00,0,Wunderground v.1.15,2013-02-14 01:06:00,
2013-02-13 19:07:00,34.3,28.2,29.79,SSE,163,1.0,1.0,78,0.00,,,0.00,0,Wunderground v.1.15,2013-02-14 01:07:00,
2013-02-13 19:10:00,34.2,28.4,29.79,SSE,163,1.0,1.0,79,0.00,,,0.00,0,Wunderground v.1.15,2013-02-14 01:10:00,
2013-02-13 19:12:00,34.2,28.4,29.79,SSE,163,1.0,1.0,79,0.00,,,0.00,0,Wunderground v.1.15,2013-02-14 01:12:00,
2013-02-13 19:14:00,34.3,28.5,29.79,South,173,1.0,6.0,79,0.00,,,0.00,0,Wunderground v.1.15,2013-02-14 01:14:00,
2013-02-13 19:17:00,34.4,28.6,29.79,South,173,1.0,6.0,79,0.00,,,0.00,0,Wunderground v.1.15,2013-02-14 01:17:00,
2013-02-13 19:18:00,34.4,28.6,29.79,South,173,2.0,6.0,79,0.00,,,0.00,0,Wunderground v.1.15,2013-02-14 01:18:00,
2013-02-13 19:19:00,34.4,28.6,29.79,South,173,2.0,6.0,79,0.00,,,0.00,0,Wunderground v.1.15,2013-02-14 01:19:00,
2013-02-13 19:22:00,34.5,28.7,29.79,South,173,2.0,2.0,79,0.00,,,0.00,0,Wunderground v.1.15,2013-02-14 01:22:00,
2013-02-13 19:24:00,34.5,28.7,29.79,South,173,1.0,2.0,79,0.00,,,0.00,0,Wunderground v.1.15,2013-02-14 01:24:00,
2013-02-13 19:25:00,34.5,28.7,29.79,South,173,1.0,2.0,79,0.00,,,0.00,0,Wunderground v.1.15,2013-02-14 01:25:00,
2013-02-13 19:27:00,34.5,28.7,29.79,South,173,1.0,2.0,79,0.00,,,0.00,0,Wunderground v.1.15,2013-02-14 01:27:00,
2013-02-13 19:29:00,34.5,28.7,29.79,South,172,1.0,2.0,79,0.00,,,0.00,0,Wunderground v.1.15,2013-02-14 01:29:00,
2013-02-13 19:30:00,34.4,28.6,29.79,South,172,1.0,1.0,79,0.00,,,0.00,0,Wunderground v.1.15,2013-02-14 01:30:00,
2013-02-13 19:34:00,34.5,28.7,29.79,South,173,1.0,1.0,79,0.00,,,0.00,0,Wunderground v.1.15,2013-02-14 01:34:00,
2013-02-13 19:35:00,34.5,28.7,29.79,South,173,1.0,1.0,79,0.00,,,0.00,0,Wunderground v.1.15,2013-02-14 01:35:00,
2013-02-13 19:36:00,34.5,28.7,29.79,South,172,1.0,1.0,79,0.00,,,0.00,0,Wunderground v.1.15,2013-02-14 01:36:00,
2013-02-13 19:39:00,34.5,28.7,29.79,South,172,2.0,5.0,79,0.00,,,0.00,0,Wunderground v.1.15,2013-02-14 01:39:00,
2013-02-13 19:41:00,34.5,28.7,29.79,South,173,2.0,2.0,79,0.00,,,0.00,0,Wunderground v.1.15,2013-02-14 01:41:00,
2013-02-13 19:44:00,34.5,28.7,29.78,South,173,2.0,2.0,79,0.00,,,0.00,0,Wunderground v.1.15,2013-02-14 01:44:00,
2013-02-13 19:45:00,34.4,28.6,29.78,South,173,2.0,2.0,79,0.00,,,0.00,0,Wunderground v.1.15,2013-02-14 01:45:00,
2013-02-13 19:47:00,34.4,28.6,29.78,South,173,2.0,4.0,79,0.00,,,0.00,0,Wunderground v.1.15,2013-02-14 01:47:00,
2013-02-13 19:48:00,34.4,28.6,29.78,South,173,2.0,4.0,79,0.00,,,0.00,0,Wunderground v.1.15,2013-02-14 01:48:00,
2013-02-13 19:50:00,34.3,28.5,29.78,South,173,2.0,2.0,79,0.00,,,0.00,0,Wunderground v.1.15,2013-02-14 01:50:00,
2013-02-13 19:52:00,34.3,28.5,29.78,South,172,2.0,5.0,79,0.00,,,0.00,0,Wunderground v.1.15,2013-02-14 01:52:00,
2013-02-13 19:53:00,34.3,28.5,29.78,South,172,3.0,5.0,79,0.00,,,0.00,0,Wunderground v.1.15,2013-02-14 01:53:00,
2013-02-13 19:55:00,34.3,28.5,29.78,South,172,3.0,5.0,79,0.00,,,0.00,0,Wunderground v.1.15,2013-02-14 01:55:00,
2013-02-13 19:57:00,34.2,28.4,29.78,South,172,3.0,5.0,79,0.00,,,0.00,0,Wunderground v.1.15,2013-02-14 01:57:00,
2013-02-13 19:59:00,34.2,28.7,29.78,South,172,3.0,5.0,80,0.00,,,0.00,0,Wunderground v.1.15,2013-02-14 01:59:00,
2013-02-13 20:00:00,34.2,28.7,29.78,South,172,3.0,3.0,80,0.00,,,0.00,0,Wunderground v.1.15,2013-02-14 02:00:00,
2013-02-13 20:02:00,34.1,28.6,29.78,South,172,3.0,4.0,80,0.00,,,0.00,0,Wunderground v.1.15,2013-02-14 02:02:00,
2013-02-13 20:06:00,34.1,28.6,29.77,South,172,2.0,4.0,80,0.00,,,0.00,0,Wunderground v.1.15,2013-02-14 02:06:00,
2013-02-13 20:07:00,34.0,28.5,29.78,South,172,2.0,4.0,80,0.00,,,0.00,0,Wunderground v.1.15,2013-02-14 02:07:00,
2013-02-13 20:12:00,33.9,28.4,29.77,South,172,1.0,4.0,80,0.00,,,0.00,0,Wunderground v.1.15,2013-02-14 02:12:00,
2013-02-13 20:13:00,33.9,28.4,29.77,South,172,1.0,4.0,80,0.00,,,0.00,0,Wunderground v.1.15,2013-02-14 02:13:00,
2013-02-13 20:17:00,33.7,28.2,29.77,South,172,1.0,4.0,80,0.00,,,0.00,0,Wunderground v.1.15,2013-02-14 02:17:00,
2013-02-13 20:19:00,33.7,28.2,29.77,South,172,1.0,4.0,80,0.00,,,0.00,0,Wunderground v.1.15,2013-02-14 02:19:00,
2013-02-13 20:24:00,33.6,28.4,29.77,South,172,2.0,4.0,81,0.00,,,0.00,0,Wunderground v.1.15,2013-02-14 02:24:00,
2013-02-13 20:25:00,33.6,28.4,29.77,South,172,2.0,4.0,81,0.00,,,0.00,0,Wunderground v.1.15,2013-02-14 02:25:00,
2013-02-13 20:26:00,33.5,28.3,29.77,South,172,2.0,4.0,81,0.00,,,0.00,0,Wunderground v.1.15,2013-02-14 02:26:00,
2013-02-13 20:28:00,33.5,28.3,29.77,South,172,3.0,4.0,81,0.00,,,0.00,0,Wunderground v.1.15,2013-02-14 02:28:00,
2013-02-13 20:31:00,33.4,28.2,29.77,South,172,3.0,5.0,81,0.00,,,0.00,0,Wunderground v.1.15,2013-02-14 02:31:00,
2013-02-13 20:32:00,33.4,28.2,29.77,South,172,3.0,5.0,81,0.00,,,0.00,0,Wunderground v.1.15,2013-02-14 02:32:00,
2013-02-13 20:34:00,33.3,28.1,29.76,South,172,3.0,5.0,81,0.00,,,0.00,0,Wunderground v.1.15,2013-02-14 02:34:00,
2013-02-13 20:36:00,33.3,28.1,29.77,South,171,3.0,5.0,81,0.00,,,0.00,0,Wunderground v.1.15,2013-02-14 02:36:00,
2013-02-13 20:37:00,33.2,28.0,29.77,South,171,3.0,5.0,81,0.00,,,0.00,0,Wunderground v.1.15,2013-02-14 02:37:00,
2013-02-13 20:39:00,33.2,28.3,29.77,SSE,163,3.0,5.0,82,0.00,,,0.00,0,Wunderground v.1.15,2013-02-14 02:39:00,
2013-02-13 20:40:00,33.2,28.3,29.77,SSE,163,4.0,4.0,82,0.00,,,0.00,0,Wunderground v.1.15,2013-02-14 02:40:00,
2013-02-13 20:43:00,33.1,28.2,29.76,SSE,163,3.0,4.0,82,0.00,,,0.00,0,Wunderground v.1.15,2013-02-14 02:43:00,
2013-02-13 20:45:00,33.1,28.2,29.76,SSE,163,3.0,4.0,82,0.00,,,0.00,0,Wunderground v.1.15,2013-02-14 02:45:00,
2013-02-13 20:46:00,33.1,28.2,29.76,SSE,163,3.0,4.0,82,0.00,,,0.00,0,Wunderground v.1.15,2013-02-14 02:46:00,
2013-02-13 20:47:00,33.1,28.2,29.76,SSE,163,3.0,4.0,82,0.00,,,0.00,0,Wunderground v.1.15,2013-02-14 02:47:00,
2013-02-13 20:49:00,33.1,28.2,29.76,SSE,163,3.0,4.0,82,0.00,,,0.00,0,Wunderground v.1.15,2013-02-14 02:49:00,
2013-02-13 20:54:00,33.0,28.1,29.76,SSE,163,2.0,2.0,82,0.00,,,0.00,0,Wunderground v.1.15,2013-02-14 02:54:00,
2013-02-13 20:55:00,33.0,28.1,29.76,SSE,163,2.0,2.0,82,0.00,,,0.00,0,Wunderground v.1.15,2013-02-14 02:55:00,
2013-02-13 20:57:00,33.0,28.1,29.76,SSE,163,1.0,5.0,82,0.00,,,0.00,0,Wunderground v.1.15,2013-02-14 02:57:00,
2013-02-13 20:59:00,33.1,28.2,29.76,SSE,163,2.0,5.0,82,0.00,,,0.00,0,Wunderground v.1.15,2013-02-14 02:59:00,
2013-02-13 21:02:00,33.1,28.2,29.76,SSE,163,1.0,2.0,82,0.00,,,0.00,0,Wunderground v.1.15,2013-02-14 03:02:00,
2013-02-13 21:04:00,33.1,28.2,29.76,SSE,163,1.0,2.0,82,0.00,,,0.00,0,Wunderground v.1.15,2013-02-14 03:04:00,
2013-02-13 21:05:00,33.1,28.2,29.76,SSE,163,1.0,2.0,82,0.00,,,0.00,0,Wunderground v.1.15,2013-02-14 03:05:00,
2013-02-13 21:10:00,33.1,28.2,29.75,SSE,163,1.0,2.0,82,0.00,,,0.00,0,Wunderground v.1.15,2013-02-14 03:10:00,
2013-02-13 21:11:00,33.1,28.2,29.75,SSE,163,1.0,2.0,82,0.00,,,0.00,0,Wunderground v.1.15,2013-02-14 03:11:00,
2013-02-13 21:12:00,33.1,28.2,29.75,SSE,163,2.0,2.0,82,0.00,,,0.00,0,Wunderground v.1.15,2013-02-14 03:12:00,
2013-02-13 21:17:00,33.0,28.4,29.75,SSE,163,2.0,5.0,83,0.00,,,0.00,0,Wunderground v.1.15,2013-02-14 03:17:00,
2013-02-13 21:19:00,33.0,28.4,29.75,SSE,163,2.0,5.0,83,0.00,,,0.00,0,Wunderground v.1.15,2013-02-14 03:19:00,
2013-02-13 21:23:00,33.1,28.5,29.75,SSE,163,2.0,4.0,83,0.00,,,0.00,0,Wunderground v.1.15,2013-02-14 03:23:00,
2013-02-13 21:24:00,33.0,28.4,29.75,SSE,163,2.0,4.0,83,0.00,,,0.00,0,Wunderground v.1.15,2013-02-14 03:24:00,
2013-02-13 21:25:00,33.0,28.4,29.75,SSE,163,2.0,4.0,83,0.00,,,0.00,0,Wunderground v.1.15,2013-02-14 03:25:00,
2013-02-13 21:30:00,33.0,28.4,29.74,SSE,163,1.0,1.0,83,0.00,,,0.00,0,Wunderground v.1.15,2013-02-14 03:30:00,
2013-02-13 21:32:00,33.0,28.4,29.74,SSE,163,1.0,4.0,83,0.00,,,0.00,0,Wunderground v.1.15,2013-02-14 03:32:00,
2013-02-13 21:33:00,32.9,28.3,29.74,SSE,163,1.0,4.0,83,0.00,,,0.00,0,Wunderground v.1.15,2013-02-14 03:33:00,
2013-02-13 21:37:00,33.0,28.4,29.74,SSE,163,1.0,4.0,83,0.00,,,0.00,0,Wunderground v.1.15,2013-02-14 03:37:00,
2013-02-13 21:39:00,33.0,28.4,29.74,SSE,163,2.0,4.0,83,0.00,,,0.00,0,Wunderground v.1.15,2013-02-14 03:39:00,
2013-02-13 21:44:00,32.9,28.3,29.74,SSE,163,1.0,2.0,83,0.00,,,0.00,0,Wunderground v.1.15,2013-02-14 03:44:00,
2013-02-13 21:45:00,32.9,28.3,29.74,SSE,163,1.0,2.0,83,0.00,,,0.00,0,Wunderground v.1.15,2013-02-14 03:45:00,
2013-02-13 21:46:00,32.9,28.3,29.74,SSE,163,1.0,2.0,83,0.00,,,0.00,0,Wunderground v.1.15,2013-02-14 03:46:00,
2013-02-13 21:50:00,33.0,28.7,29.74,SSE,163,1.0,1.0,84,0.00,,,0.00,0,Wunderground v.1.15,2013-02-14 03:50:00,
2013-02-13 21:51:00,33.0,28.7,29.74,SSE,163,1.0,1.0,84,0.00,,,0.00,0,Wunderground v.1.15,2013-02-14 03:51:00,
2013-02-13 21:52:00,33.0,28.7,29.74,SSE,163,1.0,1.0,84,0.00,,,0.00,0,Wunderground v.1.15,2013-02-14 03:52:00,
2013-02-13 21:56:00,33.0,28.4,29.74,SSE,163,1.0,2.0,83,0.00,,,0.00,0,Wunderground v.1.15,2013-02-14 03:56:00,
2013-02-13 21:58:00,33.0,28.7,29.73,SSE,163,1.0,2.0,84,0.00,,,0.00,0,Wunderground v.1.15,2013-02-14 03:58:00,
2013-02-13 22:02:00,33.0,28.7,29.73,SSE,163,1.0,2.0,84,0.00,,,0.00,0,Wunderground v.1.15,2013-02-14 04:02:00,
2013-02-13 22:05:00,33.0,28.7,29.73,SSE,163,2.0,4.0,84,0.00,,,0.00,0,Wunderground v.1.15,2013-02-14 04:05:00,
2013-02-13 22:07:00,33.0,28.7,29.73,SSE,163,2.0,4.0,84,0.00,,,0.00,0,Wunderground v.1.15,2013-02-14 04:07:00,
2013-02-13 22:08:00,32.9,28.6,29.73,SSE,163,2.0,4.0,84,0.00,,,0.00,0,Wunderground v.1.15,2013-02-14 04:08:00,
2013-02-13 22:10:00,32.9,28.9,29.73,SSE,163,3.0,3.0,85,0.00,,,0.00,0,Wunderground v.1.15,2013-02-14 04:10:00,
2013-02-13 22:12:00,32.9,28.9,29.73,SSE,163,3.0,3.0,85,0.00,,,0.00,0,Wunderground v.1.15,2013-02-14 04:12:00,
2013-02-13 22:15:00,32.9,28.9,29.73,SSE,163,3.0,5.0,85,0.00,,,0.00,0,Wunderground v.1.15,2013-02-14 04:15:00,
2013-02-13 22:16:00,32.8,28.8,29.73,SSE,162,3.0,5.0,85,0.00,,,0.00,0,Wunderground v.1.15,2013-02-14 04:16:00,
2013-02-13 22:17:00,32.8,28.8,29.73,SSE,161,3.0,5.0,85,0.00,,,0.00,0,Wunderground v.1.15,2013-02-14 04:17:00,
2013-02-13 22:20:00,32.8,29.1,29.73,SSE,160,3.0,3.0,86,0.00,,,0.00,0,Wunderground v.1.15,2013-02-14 04:20:00,
2013-02-13 22:24:00,32.7,29.3,29.73,SSE,160,3.0,7.0,87,0.00,,,0.00,0,Wunderground v.1.15,2013-02-14 04:24:00,
2013-02-13 22:25:00,32.7,29.3,29.72,SSE,160,4.0,7.0,87,0.00,,,0.00,0,Wunderground v.1.15,2013-02-14 04:25:00,
2013-02-13 22:29:00,32.6,29.2,29.72,SSE,160,3.0,7.0,87,0.00,,,0.00,0,Wunderground v.1.15,2013-02-14 04:29:00,
2013-02-13 22:30:00,32.6,29.4,29.72,SSE,160,3.0,3.0,88,0.00,,,0.00,0,Wunderground v.1.15,2013-02-14 04:30:00,
2013-02-13 22:31:00,32.6,29.4,29.72,SSE,160,3.0,4.0,88,0.00,,,0.00,0,Wunderground v.1.15,2013-02-14 04:31:00,
2013-02-13 22:35:00,32.6,29.4,29.72,SSE,160,3.0,4.0,88,0.00,,,0.00,0,Wunderground v.1.15,2013-02-14 04:35:00,
2013-02-13 22:36:00,32.5,29.3,29.72,SSE,160,3.0,4.0,88,0.00,,,0.00,0,Wunderground v.1.15,2013-02-14 04:36:00,
2013-02-13 22:38:00,32.5,29.6,29.72,SSE,160,2.0,4.0,89,0.00,,,0.00,0,Wunderground v.1.15,2013-02-14 04:38:00,
2013-02-13 22:41:00,32.4,29.5,29.71,SSE,160,1.0,2.0,89,0.00,,,0.00,0,Wunderground v.1.15,2013-02-14 04:41:00,
2013-02-13 22:44:00,32.4,29.5,29.72,SSE,160,1.0,2.0,89,0.00,,,0.00,0,Wunderground v.1.15,2013-02-14 04:44:00,
2013-02-13 22:49:00,32.3,29.7,29.72,SSE,160,0.0,2.0,90,0.00,,,0.00,0,Wunderground v.1.15,2013-02-14 04:49:00,
2013-02-13 22:50:00,32.2,29.6,29.71,SSE,160,0.0,0.0,90,0.00,,,0.00,0,Wunderground v.1.15,2013-02-14 04:50:00,
2013-02-13 22:53:00,32.1,29.5,29.71,SSE,160,0.0,1.0,90,0.00,,,0.00,0,Wunderground v.1.15,2013-02-14 04:53:00,
2013-02-13 22:55:00,32.1,29.5,29.71,SSE,160,0.0,1.0,90,0.00,,,0.00,0,Wunderground v.1.15,2013-02-14 04:55:00,
2013-02-13 22:56:00,32.1,29.5,29.71,SSE,160,0.0,1.0,90,0.00,,,0.01,0,Wunderground v.1.15,2013-02-14 04:56:00,
2013-02-13 22:59:00,32.0,29.7,29.71,SSE,160,0.0,1.0,91,0.00,,,0.01,0,Wunderground v.1.15,2013-02-14 04:59:00,
2013-02-13 23:00:00,32.0,29.7,29.71,SSE,160,0.0,4.0,91,0.00,,,0.01,0,Wunderground v.1.15,2013-02-14 05:00:00,
2013-02-13 23:01:00,32.0,29.7,29.71,SSE,160,0.0,4.0,91,0.00,,,0.01,0,Wunderground v.1.15,2013-02-14 05:01:00,
2013-02-13 23:03:00,32.0,29.7,29.71,SSE,160,0.0,4.0,91,0.00,,,0.01,0,Wunderground v.1.15,2013-02-14 05:03:00,
2013-02-13 23:05:00,32.0,29.7,29.71,SSE,160,0.0,4.0,91,0.00,,,0.01,0,Wunderground v.1.15,2013-02-14 05:05:00,
2013-02-13 23:06:00,32.0,29.7,29.71,SSE,160,1.0,4.0,91,0.00,,,0.01,0,Wunderground v.1.15,2013-02-14 05:06:00,
2013-02-13 23:09:00,32.0,29.9,29.70,SSE,160,1.0,4.0,92,0.00,,,0.01,0,Wunderground v.1.15,2013-02-14 05:09:00,
2013-02-13 23:11:00,32.0,29.9,29.70,SSE,160,1.0,1.0,92,0.04,,,0.02,0,Wunderground v.1.15,2013-02-14 05:11:00,
2013-02-13 23:14:00,32.0,29.9,29.70,SSE,160,1.0,1.0,92,0.04,,,0.02,0,Wunderground v.1.15,2013-02-14 05:14:00,
2013-02-13 23:16:00,32.0,29.9,29.70,SSE,160,0.0,1.0,92,0.04,,,0.02,0,Wunderground v.1.15,2013-02-14 05:16:00,
2013-02-13 23:17:00,31.9,29.8,29.70,SSE,160,0.0,1.0,92,0.04,,,0.02,0,Wunderground v.1.15,2013-02-14 05:17:00,
2013-02-13 23:19:00,31.9,29.8,29.70,SSE,160,0.0,1.0,92,0.04,,,0.02,0,Wunderground v.1.15,2013-02-14 05:19:00,
2013-02-13 23:24:00,32.0,30.2,29.70,SSE,160,0.0,1.0,93,0.04,,,0.02,0,Wunderground v.1.15,2013-02-14 05:24:00,
2013-02-13 23:26:00,32.0,30.2,29.70,SSE,160,0.0,1.0,93,0.04,,,0.02,0,Wunderground v.1.15,2013-02-14 05:26:00,
2013-02-13 23:29:00,32.1,30.3,29.70,SSE,160,0.0,1.0,93,0.00,,,0.02,0,Wunderground v.1.15,2013-02-14 05:29:00,
2013-02-13 23:33:00,32.2,30.4,29.69,SSE,160,0.0,1.0,93,0.00,,,0.02,0,Wunderground v.1.15,2013-02-14 05:33:00,
2013-02-13 23:35:00,32.3,30.5,29.69,SSE,160,0.0,1.0,93,0.00,,,0.03,0,Wunderground v.1.15,2013-02-14 05:35:00,
2013-02-13 23:36:00,32.3,30.5,29.69,SSE,160,0.0,1.0,93,0.00,,,0.03,0,Wunderground v.1.15,2013-02-14 05:36:00,
2013-02-13 23:37:00,32.3,30.5,29.69,SSE,160,0.0,1.0,93,0.00,,,0.03,0,Wunderground v.1.15,2013-02-14 05:37:00,
2013-02-13 23:42:00,32.3,30.5,29.69,SSE,160,0.0,1.0,93,0.00,,,0.03,0,Wunderground v.1.15,2013-02-14 05:42:00,
2013-02-13 23:44:00,32.3,30.5,29.69,SSE,160,0.0,2.0,93,0.07,,,0.04,0,Wunderground v.1.15,2013-02-14 05:44:00,
2013-02-13 23:48:00,32.3,30.5,29.69,SSE,160,0.0,2.0,93,0.07,,,0.04,0,Wunderground v.1.15,2013-02-14 05:48:00,
2013-02-13 23:50:00,32.3,30.5,29.69,SSE,160,0.0,1.0,93,0.07,,,0.04,0,Wunderground v.1.15,2013-02-14 05:50:00,
2013-02-13 23:54:00,32.4,30.9,29.69,SSE,160,1.0,5.0,94,0.05,,,0.04,0,Wunderground v.1.15,2013-02-14 05:54:00,
2013-02-13 23:55:00,32.4,30.9,29.69,SSE,160,1.0,5.0,94,0.05,,,0.04,0,Wunderground v.1.15,2013-02-14 05:55:00,
2013-02-13 23:56:00,32.4,30.9,29.69,SSE,160,1.0,5.0,94,0.04,,,0.04,0,Wunderground v.1.15,2013-02-14 05:56:00,
2013-02-13 23:59:00,32.4,30.9,29.69,SSE,160,1.0,5.0,94,0.04,,,0.04,0,Wunderground v.1.15,2013-02-14 05:59:00,